Wetterdaten: Donnerstag, 27.12.2018
Datum Zeit Temp. Aussen Temp. o. S. +5cm Feuchte Auss Luftdruck Regen Sonnenschein Regendauer Solar Windben Empfang
27.12.2018 00:00 1,3 C 1,1 C 0,0 C 90 % 1027,8 hPa 0,0 l/m 0 min 0 min 0 W/m 0,0 km/h (0 Bft) 93,62 %
27.12.2018 00:02 1,3 C 0,6 C 0,0 C 90 % 1027,9 hPa 0,0 l/m 0 min 0 min 0 W/m 0,0 km/h (0 Bft) 93,18 %
27.12.2018 00:04 1,3 C 0,6 C 0,0 C 90 % 1027,8 hPa 0,0 l/m 0 min 0 min 0 W/m 0,0 km/h (0 Bft) 95,74 %
27.12.2018 00:07 1,3 C 0,6 C 0,0 C 90 % 1027,7 hPa 0,0 l/m 0 min 0 min 0 W/m 0,0 km/h (0 Bft) 95,71 %
27.12.2018 00:08 1,3 C 0,6 C 0,0 C 90 % 1027,7 hPa 0,0 l/m 0 min 0 min 0 W/m 0,0 km/h (0 Bft) 100,00 %
27.12.2018 00:10 1,3 C 0,6 C 0,0 C 90 % 1027,7 hPa 0,0 l/m 0 min 0 min 0 W/m 0,0 km/h (0 Bft) 95,74 %
27.12.2018 00:12 1,3 C 0,6 C 0,0 C 90 % 1027,7 hPa 0,0 l/m 0 min 0 min 0 W/m 3,2 km/h (1 Bft) 95,74 %
27.12.2018 00:14 1,3 C 0,6 C 0,0 C 90 % 1027,7 hPa 0,0 l/m 0 min 0 min 0 W/m 0,0 km/h (0 Bft) 97,87 %
27.12.2018 00:16 1,3 C 0,6 C 0,0 C 90 % 1027,8 hPa 0,0 l/m 0 min 0 min 0 W/m 0,0 km/h (0 Bft) 91,49 %
27.12.2018 00:18 1,3 C 0,6 C 0,0 C 90 % 1027,8 hPa 0,0 l/m 0 min 0 min 0 W/m 0,0 km/h (0 Bft) 97,87 %
27.12.2018 00:20 1,3 C 0,6 C 0,0 C 90 % 1027,8 hPa 0,0 l/m 0 min 0 min 0 W/m 0,0 km/h (0 Bft) 97,83 %
27.12.2018 00:22 1,2 C 0,6 C 0,0 C 90 % 1027,8 hPa 0,0 l/m 0 min 0 min 0 W/m 0,0 km/h (0 Bft) 100,00 %
27.12.2018 00:24 1,3 C 0,6 C 0,0 C 90 % 1027,9 hPa 0,0 l/m 0 min 0 min 0 W/m 0,0 km/h (0 Bft) 97,87 %
27.12.2018 00:26 1,2 C 0,6 C 0,0 C 90 % 1027,7 hPa 0,0 l/m 0 min 0 min 0 W/m 0,0 km/h (0 Bft) 95,74 %
27.12.2018 00:28 1,2 C 0,6 C 0,0 C 90 % 1027,7 hPa 0,0 l/m 0 min 0 min 0 W/m 3,2 km/h (1 Bft) 97,87 %
27.12.2018 00:30 1,2 C 0,6 C 0,0 C 90 % 1027,7 hPa 0,0 l/m 0 min 0 min 0 W/m 3,2 km/h (1 Bft) 97,87 %
27.12.2018 00:32 1,2 C 0,6 C 0,0 C 90 % 1027,6 hPa 0,0 l/m 0 min 0 min 0 W/m 3,2 km/h (1 Bft) 97,83 %
27.12.2018 00:34 1,2 C 0,6 C 0,0 C 90 % 1027,7 hPa 0,0 l/m 0 min 0 min 0 W/m 0,0 km/h (0 Bft) 95,74 %
27.12.2018 00:36 1,2 C 0,6 C 0,0 C 91 % 1027,8 hPa 0,0 l/m 0 min 0 min 0 W/m 0,0 km/h (0 Bft) 95,74 %
27.12.2018 00:38 1,2 C 0,6 C 0,0 C 91 % 1027,7 hPa 0,0 l/m 0 min 0 min 0 W/m 0,0 km/h (0 Bft) 97,87 %
27.12.2018 00:40 1,2 C 0,6 C 0,0 C 91 % 1027,7 hPa 0,0 l/m 0 min 0 min 0 W/m 3,2 km/h (1 Bft) 93,62 %
27.12.2018 00:42 1,2 C 0,6 C 0,0 C 91 % 1027,6 hPa 0,0 l/m 0 min 0 min 0 W/m 9,7 km/h (2 Bft) 97,87 %
27.12.2018 00:44 1,2 C 0,6 C 0,0 C 91 % 1027,6 hPa 0,0 l/m 0 min 0 min 0 W/m 6,4 km/h (2 Bft) 97,83 %
27.12.2018 00:46 1,2 C 0,6 C 0,0 C 90 % 1027,6 hPa 0,0 l/m 0 min 0 min 0 W/m 0,0 km/h (0 Bft) 97,87 %
27.12.2018 00:48 1,2 C 0,6 C 0,0 C 90 % 1027,6 hPa 0,0 l/m 0 min 0 min 0 W/m 6,4 km/h (2 Bft) 97,87 %
27.12.2018 00:50 1,2 C 0,6 C 0,0 C 90 % 1027,6 hPa 0,0 l/m 0 min 0 min 0 W/m 3,2 km/h (1 Bft) 97,87 %
27.12.2018 00:52 1,2 C 0,6 C 0,0 C 90 % 1027,6 hPa 0,0 l/m 0 min 0 min 0 W/m 3,2 km/h (1 Bft) 95,74 %
27.12.2018 00:54 1,2 C 0,6 C 0,0 C 91 % 1027,7 hPa 0,0 l/m 0 min 0 min 0 W/m 0,0 km/h (0 Bft) 97,87 %
27.12.2018 00:56 1,2 C 0,6 C 0,0 C 91 % 1027,6 hPa 0,0 l/m 0 min 0 min 0 W/m 0,0 km/h (0 Bft) 97,83 %
27.12.2018 00:58 1,2 C 0,6 C 0,0 C 91 % 1027,5 hPa 0,0 l/m 0 min 0 min 0 W/m 0,0 km/h (0 Bft) 97,87 %
27.12.2018 01:00 1,2 C 0,6 C 0,0 C 91 % 1027,4 hPa 0,0 l/m 0 min 0 min 0 W/m 0,0 km/h (0 Bft) 97,87 %
27.12.2018 01:02 1,2 C 0,6 C 0,0 C 91 % 1027,5 hPa 0,0 l/m 0 min 0 min 0 W/m 3,2 km/h (1 Bft) 97,87 %
27.12.2018 01:04 1,2 C 0,6 C 0,0 C 91 % 1027,6 hPa 0,0 l/m 0 min 0 min 0 W/m 0,0 km/h (0 Bft) 97,87 %
27.12.2018 01:06 1,1 C 0,6 C 0,0 C 91 % 1027,6 hPa 0,0 l/m 0 min 0 min 0 W/m 0,0 km/h (0 Bft) 97,83 %
27.12.2018 01:08 1,1 C 0,6 C 0,0 C 91 % 1027,6 hPa 0,0 l/m 0 min 0 min 0 W/m 0,0 km/h (0 Bft) 97,87 %
27.12.2018 01:10 1,1 C 0,6 C 0,0 C 91 % 1027,5 hPa 0,0 l/m 0 min 0 min 0 W/m 0,0 km/h (0 Bft) 100,00 %
27.12.2018 01:12 1,1 C 0,6 C 0,0 C 91 % 1027,6 hPa 0,0 l/m 0 min 0 min 0 W/m 0,0 km/h (0 Bft) 100,00 %
27.12.2018 01:14 1,1 C 0,6 C 0,0 C 91 % 1027,6 hPa 0,0 l/m 0 min 0 min 0 W/m 0,0 km/h (0 Bft) 100,00 %
27.12.2018 01:16 1,1 C 0,6 C 0,0 C 91 % 1027,6 hPa 0,0 l/m 0 min 0 min 0 W/m 3,2 km/h (1 Bft) 100,00 %
27.12.2018 01:18 1,1 C 0,6 C 0,0 C 91 % 1027,6 hPa 0,0 l/m 0 min 0 min 0 W/m 0,0 km/h (0 Bft) 100,00 %
27.12.2018 01:20 1,1 C 0,6 C 0,0 C 91 % 1027,5 hPa 0,0 l/m 0 min 0 min 0 W/m 0,0 km/h (0 Bft) 100,00 %
27.12.2018 01:22 1,1 C 0,6 C 0,0 C 91 % 1027,5 hPa 0,0 l/m 0 min 0 min 0 W/m 6,4 km/h (2 Bft) 100,00 %
27.12.2018 01:24 1,1 C 0,6 C 0,0 C 91 % 1027,5 hPa 0,0 l/m 0 min 0 min 0 W/m 3,2 km/h (1 Bft) 100,00 %
27.12.2018 01:26 1,1 C 0,6 C 0,0 C 91 % 1027,5 hPa 0,0 l/m 0 min 0 min 0 W/m 0,0 km/h (0 Bft) 97,87 %
27.12.2018 01:28 1,1 C 0,6 C 0,0 C 91 % 1027,4 hPa 0,0 l/m 0 min 0 min 0 W/m 0,0 km/h (0 Bft) 100,00 %
27.12.2018 01:30 1,1 C 0,6 C 0,0 C 91 % 1027,4 hPa 0,0 l/m 0 min 0 min 0 W/m 0,0 km/h (0 Bft) 100,00 %
27.12.2018 01:32 1,1 C 0,6 C 0,0 C 91 % 1027,4 hPa 0,0 l/m 0 min 0 min 0 W/m 9,7 km/h (2 Bft) 100,00 %
27.12.2018 01:34 1,1 C 0,6 C 0,0 C 91 % 1027,4 hPa 0,0 l/m 0 min 0 min 0 W/m 0,0 km/h (0 Bft) 100,00 %
27.12.2018 01:36 1,1 C 0,6 C 0,0 C 91 % 1027,5 hPa 0,0 l/m 0 min 0 min 0 W/m 3,2 km/h (1 Bft) 100,00 %
27.12.2018 01:38 1,0 C 0,6 C 0,0 C 91 % 1027,5 hPa 0,0 l/m 0 min 0 min 0 W/m 0,0 km/h (0 Bft) 100,00 %
27.12.2018 01:40 1,0 C 0,6 C 0,0 C 91 % 1027,5 hPa 0,0 l/m 0 min 0 min 0 W/m 0,0 km/h (0 Bft) 100,00 %
27.12.2018 01:42 1,0 C 0,6 C 0,0 C 91 % 1027,4 hPa 0,0 l/m 0 min 0 min 0 W/m 9,7 km/h (2 Bft) 100,00 %
27.12.2018 01:44 1,0 C 0,6 C 0,0 C 91 % 1027,4 hPa 0,0 l/m 0 min 0 min 0 W/m 3,2 km/h (1 Bft) 100,00 %
27.12.2018 01:46 1,0 C 0,6 C 0,0 C 91 % 1027,5 hPa 0,0 l/m 0 min 0 min 0 W/m 6,4 km/h (2 Bft) 100,00 %
27.12.2018 01:48 1,0 C 0,6 C 0,0 C 91 % 1027,5 hPa 0,0 l/m 0 min 0 min 0 W/m 0,0 km/h (0 Bft) 100,00 %
27.12.2018 01:50 1,0 C 0,6 C 0,0 C 91 % 1027,4 hPa 0,0 l/m 0 min 0 min 0 W/m 3,2 km/h (1 Bft) 100,00 %
27.12.2018 01:52 1,0 C 0,6 C 0,0 C 92 % 1027,3 hPa 0,0 l/m 0 min 0 min 0 W/m 0,0 km/h (0 Bft) 100,00 %
27.12.2018 01:54 1,0 C 0,6 C 0,0 C 92 % 1027,3 hPa 0,0 l/m 0 min 0 min 0 W/m 0,0 km/h (0 Bft) 100,00 %
27.12.2018 01:56 1,0 C 0,6 C 0,0 C 92 % 1027,3 hPa 0,0 l/m 0 min 0 min 0 W/m 0,0 km/h (0 Bft) 97,83 %
27.12.2018 01:58 1,0 C 0,6 C 0,0 C 92 % 1027,3 hPa 0,0 l/m 0 min 0 min 0 W/m 0,0 km/h (0 Bft) 100,00 %
27.12.2018 02:00 1,0 C 0,6 C 0,0 C 92 % 1027,3 hPa 0,0 l/m 0 min 0 min 0 W/m 0,0 km/h (0 Bft) 100,00 %
27.12.2018 02:02 0,9 C 0,6 C 0,0 C 92 % 1027,2 hPa 0,0 l/m 0 min 0 min 0 W/m 0,0 km/h (0 Bft) 97,87 %
27.12.2018 02:04 0,9 C 0,6 C 0,0 C 92 % 1027,2 hPa 0,0 l/m 0 min 0 min 0 W/m 0,0 km/h (0 Bft) 100,00 %
27.12.2018 02:06 0,9 C 0,6 C 0,0 C 92 % 1027,1 hPa 0,0 l/m 0 min 0 min 0 W/m 0,0 km/h (0 Bft) 100,00 %
27.12.2018 02:08 0,9 C 0,6 C 0,0 C 92 % 1027,2 hPa 0,0 l/m 0 min 0 min 0 W/m 0,0 km/h (0 Bft) 100,00 %
27.12.2018 02:10 0,9 C 0,6 C 0,0 C 92 % 1027,2 hPa 0,0 l/m 0 min 0 min 0 W/m 0,0 km/h (0 Bft) 100,00 %
27.12.2018 02:12 0,9 C 0,6 C 0,0 C 92 % 1027,1 hPa 0,0 l/m 0 min 0 min 0 W/m 0,0 km/h (0 Bft) 100,00 %
27.12.2018 02:14 0,9 C 0,6 C 0,0 C 92 % 1027,1 hPa 0,0 l/m 0 min 0 min 0 W/m 3,2 km/h (1 Bft) 97,87 %
27.12.2018 02:16 0,9 C 0,6 C 0,0 C 92 % 1027,2 hPa 0,0 l/m 0 min 0 min 0 W/m 0,0 km/h (0 Bft) 97,87 %
27.12.2018 02:18 0,9 C 0,6 C 0,0 C 92 % 1027,2 hPa 0,0 l/m 0 min 0 min 0 W/m 3,2 km/h (1 Bft) 97,87 %
27.12.2018 02:20 0,9 C 0,6 C 0,0 C 92 % 1027,3 hPa 0,0 l/m 0 min 0 min 0 W/m 3,2 km/h (1 Bft) 97,83 %
27.12.2018 02:22 0,9 C 0,6 C 0,0 C 92 % 1027,2 hPa 0,0 l/m 0 min 0 min 0 W/m 0,0 km/h (0 Bft) 97,87 %
27.12.2018 02:24 0,9 C 0,6 C 0,0 C 92 % 1027,1 hPa 0,0 l/m 0 min 0 min 0 W/m 0,0 km/h (0 Bft) 97,87 %
27.12.2018 02:26 0,9 C 0,6 C 0,0 C 92 % 1027,1 hPa 0,0 l/m 0 min 0 min 0 W/m 0,0 km/h (0 Bft) 95,74 %
27.12.2018 02:28 0,9 C 0,6 C 0,0 C 92 % 1027,1 hPa 0,0 l/m 0 min 0 min 0 W/m 0,0 km/h (0 Bft) 97,87 %
27.12.2018 02:30 0,9 C 0,6 C 0,0 C 92 % 1027,2 hPa 0,0 l/m 0 min 0 min 0 W/m 0,0 km/h (0 Bft) 97,87 %
27.12.2018 02:32 0,9 C 0,6 C 0,0 C 92 % 1027,1 hPa 0,0 l/m 0 min 0 min 0 W/m 0,0 km/h (0 Bft) 97,83 %
27.12.2018 02:34 0,9 C 0,6 C 0,0 C 92 % 1027,1 hPa 0,0 l/m 0 min 0 min 0 W/m 0,0 km/h (0 Bft) 95,74 %
27.12.2018 02:36 0,9 C 0,6 C 0,0 C 92 % 1027,1 hPa 0,0 l/m 0 min 0 min 0 W/m 0,0 km/h (0 Bft) 94,92 %
27.12.2018 02:38 0,9 C 0,6 C 0,0 C 92 % 1027,1 hPa 0,0 l/m 0 min 0 min 0 W/m 0,0 km/h (0 Bft) 97,14 %
27.12.2018 02:40 0,9 C 0,6 C 0,0 C 92 % 1027,0 hPa 0,0 l/m 0 min 0 min 0 W/m 0,0 km/h (0 Bft) 97,87 %
27.12.2018 02:42 0,9 C 0,6 C 0,0 C 92 % 1027,0 hPa 0,0 l/m 0 min 0 min 0 W/m 0,0 km/h (0 Bft) 97,87 %
27.12.2018 02:44 0,9 C 0,6 C 0,0 C 92 % 1027,0 hPa 0,0 l/m 0 min 0 min 0 W/m 3,2 km/h (1 Bft) 97,83 %
27.12.2018 02:46 0,9 C 0,6 C 0,0 C 92 % 1027,0 hPa 0,0 l/m 0 min 0 min 0 W/m 0,0 km/h (0 Bft) 95,74 %
27.12.2018 02:48 0,9 C 0,6 C 0,0 C 92 % 1027,0 hPa 0,0 l/m 0 min 0 min 0 W/m 3,2 km/h (1 Bft) 95,74 %
27.12.2018 02:50 0,9 C 0,6 C 0,0 C 92 % 1026,9 hPa 0,0 l/m 0 min 0 min 0 W/m 0,0 km/h (0 Bft) 97,87 %
27.12.2018 02:52 0,9 C 0,6 C 0,0 C 92 % 1027,0 hPa 0,0 l/m 0 min 0 min 0 W/m 3,2 km/h (1 Bft) 93,62 %
27.12.2018 02:54 0,9 C 0,6 C 0,0 C 92 % 1026,9 hPa 0,0 l/m 0 min 0 min 0 W/m 0,0 km/h (0 Bft) 95,74 %
27.12.2018 02:56 0,9 C 0,6 C 0,0 C 92 % 1026,9 hPa 0,0 l/m 0 min 0 min 0 W/m 3,2 km/h (1 Bft) 89,13 %
27.12.2018 02:58 0,9 C 0,6 C 0,0 C 92 % 1026,8 hPa 0,0 l/m 0 min 0 min 0 W/m 0,0 km/h (0 Bft) 91,49 %
27.12.2018 03:00 0,8 C 0,6 C 0,0 C 92 % 1026,7 hPa 0,0 l/m 0 min 0 min 0 W/m 0,0 km/h (0 Bft) 93,62 %
27.12.2018 03:02 0,8 C 0,6 C 0,0 C 92 % 1026,8 hPa 0,0 l/m 0 min 0 min 0 W/m 0,0 km/h (0 Bft) 93,62 %
27.12.2018 03:04 0,8 C 0,6 C 0,0 C 92 % 1026,8 hPa 0,0 l/m 0 min 0 min 0 W/m 6,4 km/h (2 Bft) 93,62 %
27.12.2018 03:06 0,8 C 0,6 C 0,0 C 92 % 1026,7 hPa 0,0 l/m 0 min 0 min 0 W/m 3,2 km/h (1 Bft) 94,83 %
27.12.2018 03:08 0,8 C 0,6 C 0,0 C 92 % 1026,6 hPa 0,0 l/m 0 min 0 min 0 W/m 12,9 km/h (3 Bft) 94,29 %
27.12.2018 03:10 0,8 C 0,6 C 0,0 C 92 % 1026,7 hPa 0,0 l/m 0 min 0 min 0 W/m 0,0 km/h (0 Bft) 95,74 %
27.12.2018 03:12 0,8 C 0,6 C 0,0 C 92 % 1026,6 hPa 0,0 l/m 0 min 0 min 0 W/m 6,4 km/h (2 Bft) 95,74 %
27.12.2018 03:14 0,8 C 0,6 C 0,0 C 92 % 1026,6 hPa 0,0 l/m 0 min 0 min 0 W/m 3,2 km/h (1 Bft) 97,87 %
27.12.2018 03:16 0,8 C 0,6 C 0,0 C 92 % 1026,5 hPa 0,0 l/m 0 min 0 min 0 W/m 9,7 km/h (2 Bft) 95,74 %
27.12.2018 03:18 0,8 C 0,6 C 0,0 C 92 % 1026,5 hPa 0,0 l/m 0 min 0 min 0 W/m 0,0 km/h (0 Bft) 95,65 %
27.12.2018 03:20 0,8 C 0,6 C 0,0 C 92 % 1026,5 hPa 0,0 l/m 0 min 0 min 0 W/m 0,0 km/h (0 Bft) 95,74 %
27.12.2018 03:22 0,8 C 0,6 C 0,0 C 92 % 1026,5 hPa 0,0 l/m 0 min 0 min 0 W/m 6,4 km/h (2 Bft) 95,74 %
27.12.2018 03:24 0,8 C 0,6 C 0,0 C 92 % 1026,5 hPa 0,0 l/m 0 min 0 min 0 W/m 6,4 km/h (2 Bft) 95,74 %
27.12.2018 03:26 0,8 C 0,6 C 0,0 C 92 % 1026,5 hPa 0,0 l/m 0 min 0 min 0 W/m 6,4 km/h (2 Bft) 95,74 %
27.12.2018 03:28 0,8 C 0,6 C 0,0 C 92 % 1026,4 hPa 0,0 l/m 0 min 0 min 0 W/m 12,9 km/h (3 Bft) 95,74 %
27.12.2018 03:30 0,8 C 0,6 C 0,0 C 92 % 1026,5 hPa 0,0 l/m 0 min 0 min 0 W/m 6,4 km/h (2 Bft) 95,65 %
27.12.2018 03:32 0,8 C 0,6 C 0,0 C 92 % 1026,5 hPa 0,0 l/m 0 min 0 min 0 W/m 9,7 km/h (2 Bft) 95,74 %
27.12.2018 03:34 0,8 C 0,6 C 0,0 C 92 % 1026,6 hPa 0,0 l/m 0 min 0 min 0 W/m 6,4 km/h (2 Bft) 95,74 %
27.12.2018 03:36 0,8 C 0,0 C 0,0 C 92 % 1026,6 hPa 0,0 l/m 0 min 0 min 0 W/m 3,2 km/h (1 Bft) 93,22 %
27.12.2018 03:38 0,8 C 0,0 C 0,0 C 92 % 1026,5 hPa 0,0 l/m 0 min 0 min 0 W/m 3,2 km/h (1 Bft) 100,00 %
27.12.2018 03:40 0,8 C 0,0 C 0,0 C 92 % 1026,6 hPa 0,0 l/m 0 min 0 min 0 W/m 6,4 km/h (2 Bft) 97,87 %
27.12.2018 03:42 0,8 C 0,0 C 0,0 C 92 % 1026,6 hPa 0,0 l/m 0 min 0 min 0 W/m 6,4 km/h (2 Bft) 97,83 %
27.12.2018 03:44 0,7 C 0,0 C -0,6 C 92 % 1026,5 hPa 0,0 l/m 0 min 0 min 0 W/m 3,2 km/h (1 Bft) 95,74 %
27.12.2018 03:46 0,7 C 0,0 C -0,6 C 92 % 1026,6 hPa 0,0 l/m 0 min 0 min 0 W/m 0,0 km/h (0 Bft) 97,87 %
27.12.2018 03:48 0,7 C 0,0 C -0,6 C 92 % 1026,5 hPa 0,0 l/m 0 min 0 min 0 W/m 0,0 km/h (0 Bft) 95,74 %
27.12.2018 03:50 0,7 C 0,0 C -0,6 C 92 % 1026,5 hPa 0,0 l/m 0 min 0 min 0 W/m 0,0 km/h (0 Bft) 97,87 %
27.12.2018 03:52 0,7 C 0,0 C -0,6 C 92 % 1026,5 hPa 0,0 l/m 0 min 0 min 0 W/m 0,0 km/h (0 Bft) 100,00 %
27.12.2018 03:54 0,7 C 0,0 C -0,6 C 92 % 1026,5 hPa 0,0 l/m 0 min 0 min 0 W/m 0,0 km/h (0 Bft) 100,00 %
27.12.2018 03:56 0,7 C 0,0 C -0,6 C 92 % 1026,5 hPa 0,0 l/m 0 min 0 min 0 W/m 0,0 km/h (0 Bft) 100,00 %
27.12.2018 03:58 0,7 C 0,0 C -0,6 C 92 % 1026,4 hPa 0,0 l/m 0 min 0 min 0 W/m 0,0 km/h (0 Bft) 97,87 %
27.12.2018 04:00 0,7 C 0,0 C -0,6 C 92 % 1026,4 hPa 0,0 l/m 0 min 0 min 0 W/m 0,0 km/h (0 Bft) 100,00 %
27.12.2018 04:02 0,6 C 0,0 C -0,6 C 92 % 1026,4 hPa 0,0 l/m 0 min 0 min 0 W/m 0,0 km/h (0 Bft) 100,00 %
27.12.2018 04:04 0,6 C -0,6 C -1,1 C 92 % 1026,5 hPa 0,0 l/m 0 min 0 min 0 W/m 0,0 km/h (0 Bft) 100,00 %
27.12.2018 04:06 0,6 C -0,6 C -1,1 C 92 % 1026,4 hPa 0,0 l/m 0 min 0 min 0 W/m 0,0 km/h (0 Bft) 100,00 %
27.12.2018 04:08 0,6 C -0,6 C -1,1 C 92 % 1026,4 hPa 0,0 l/m 0 min 0 min 0 W/m 0,0 km/h (0 Bft) 97,14 %
27.12.2018 04:10 0,6 C -0,6 C -1,1 C 92 % 1026,4 hPa 0,0 l/m 0 min 0 min 0 W/m 0,0 km/h (0 Bft) 100,00 %
27.12.2018 04:12 0,5 C -0,6 C -1,1 C 92 % 1026,3 hPa 0,0 l/m 0 min 0 min 0 W/m 0,0 km/h (0 Bft) 100,00 %
27.12.2018 04:14 0,5 C -0,6 C -1,1 C 92 % 1026,4 hPa 0,0 l/m 0 min 0 min 0 W/m 0,0 km/h (0 Bft) 100,00 %
27.12.2018 04:16 0,5 C -0,6 C -1,7 C 92 % 1026,3 hPa 0,0 l/m 0 min 0 min 0 W/m 0,0 km/h (0 Bft) 100,00 %
27.12.2018 04:18 0,5 C -0,6 C -1,7 C 92 % 1026,3 hPa 0,0 l/m 0 min 0 min 0 W/m 0,0 km/h (0 Bft) 97,87 %
27.12.2018 04:20 0,5 C -1,1 C -1,7 C 92 % 1026,2 hPa 0,0 l/m 0 min 0 min 0 W/m 0,0 km/h (0 Bft) 100,00 %
27.12.2018 04:22 0,5 C -1,1 C -1,7 C 92 % 1026,2 hPa 0,0 l/m 0 min 0 min 0 W/m 0,0 km/h (0 Bft) 100,00 %
27.12.2018 04:24 0,5 C -1,1 C -1,7 C 92 % 1026,2 hPa 0,0 l/m 0 min 0 min 0 W/m 0,0 km/h (0 Bft) 100,00 %
27.12.2018 04:26 0,4 C -0,6 C -1,7 C 92 % 1026,1 hPa 0,0 l/m 0 min 0 min 0 W/m 0,0 km/h (0 Bft) 100,00 %
27.12.2018 04:28 0,4 C -0,6 C -1,7 C 92 % 1026,1 hPa 0,0 l/m 0 min 0 min 0 W/m 0,0 km/h (0 Bft) 100,00 %
27.12.2018 04:30 0,3 C -0,6 C -1,7 C 92 % 1026,1 hPa 0,0 l/m 0 min 0 min 0 W/m 0,0 km/h (0 Bft) 100,00 %
27.12.2018 04:32 0,3 C -0,6 C -1,7 C 92 % 1026,1 hPa 0,0 l/m 0 min 0 min 0 W/m 0,0 km/h (0 Bft) 100,00 %
27.12.2018 04:34 0,3 C -0,6 C -1,7 C 92 % 1026,1 hPa 0,0 l/m 0 min 0 min 0 W/m 0,0 km/h (0 Bft) 100,00 %
27.12.2018 04:36 0,3 C -0,6 C -1,7 C 92 % 1026,1 hPa 0,0 l/m 0 min 0 min 0 W/m 0,0 km/h (0 Bft) 100,00 %
27.12.2018 04:38 0,2 C -0,6 C -1,1 C 92 % 1026,1 hPa 0,0 l/m 0 min 0 min 0 W/m 0,0 km/h (0 Bft) 100,00 %
27.12.2018 04:40 0,2 C -0,6 C -1,7 C 92 % 1026,1 hPa 0,0 l/m 0 min 0 min 0 W/m 0,0 km/h (0 Bft) 100,00 %
27.12.2018 04:42 0,2 C -0,6 C -1,7 C 92 % 1026,1 hPa 0,0 l/m 0 min 0 min 0 W/m 0,0 km/h (0 Bft) 97,87 %
27.12.2018 04:44 0,2 C -0,6 C -1,1 C 92 % 1026,0 hPa 0,0 l/m 0 min 0 min 0 W/m 0,0 km/h (0 Bft) 97,87 %
27.12.2018 04:46 0,2 C -0,6 C -1,1 C 92 % 1026,0 hPa 0,0 l/m 0 min 0 min 0 W/m 0,0 km/h (0 Bft) 100,00 %
27.12.2018 04:48 0,1 C -0,6 C -1,1 C 92 % 1025,9 hPa 0,0 l/m 0 min 0 min 0 W/m 0,0 km/h (0 Bft) 97,87 %
27.12.2018 04:50 0,1 C -0,6 C -1,1 C 92 % 1026,0 hPa 0,0 l/m 0 min 0 min 0 W/m 0,0 km/h (0 Bft) 100,00 %
27.12.2018 04:52 0,1 C -0,6 C -1,1 C 92 % 1025,9 hPa 0,0 l/m 0 min 0 min 0 W/m 3,2 km/h (1 Bft) 100,00 %
27.12.2018 04:54 0,1 C -0,6 C -1,1 C 92 % 1025,9 hPa 0,0 l/m 0 min 0 min 0 W/m 3,2 km/h (1 Bft) 100,00 %
27.12.2018 04:56 0,1 C -0,6 C -1,1 C 92 % 1025,9 hPa 0,0 l/m 0 min 0 min 0 W/m 0,0 km/h (0 Bft) 100,00 %
27.12.2018 04:58 0,1 C -0,6 C -1,1 C 92 % 1025,9 hPa 0,0 l/m 0 min 0 min 0 W/m 6,4 km/h (2 Bft) 97,87 %
27.12.2018 05:00 0,1 C -0,6 C -1,1 C 92 % 1025,8 hPa 0,0 l/m 0 min 0 min 0 W/m 3,2 km/h (1 Bft) 100,00 %
27.12.2018 05:02 0,1 C -0,6 C -1,1 C 93 % 1025,7 hPa 0,0 l/m 0 min 0 min 0 W/m 0,0 km/h (0 Bft) 100,00 %
27.12.2018 05:04 0,1 C -0,6 C -1,1 C 93 % 1025,8 hPa 0,0 l/m 0 min 0 min 0 W/m 0,0 km/h (0 Bft) 97,83 %
27.12.2018 05:05 0,1 C -0,6 C -1,1 C 93 % 1025,8 hPa 0,0 l/m 0 min 0 min 0 W/m 0,0 km/h (0 Bft) 100,00 %
27.12.2018 05:10 0,1 C -0,6 C -1,1 C 92 % 1025,8 hPa 0,0 l/m 0 min 0 min 0 W/m 0,0 km/h (0 Bft) 98,25 %
27.12.2018 05:15 0,1 C -0,6 C -1,1 C 93 % 1025,8 hPa 0,0 l/m 0 min 0 min 0 W/m 0,0 km/h (0 Bft) 94,92 %
27.12.2018 05:16 0,1 C -0,6 C -1,1 C 93 % 1025,8 hPa 0,0 l/m 0 min 0 min 0 W/m 0,0 km/h (0 Bft) 100,00 %
27.12.2018 05:18 0,1 C -0,6 C -1,1 C 93 % 1025,8 hPa 0,0 l/m 0 min 0 min 0 W/m 0,0 km/h (0 Bft) 97,87 %
27.12.2018 05:20 0,1 C -0,6 C -1,1 C 93 % 1025,8 hPa 0,0 l/m 0 min 0 min 0 W/m 0,0 km/h (0 Bft) 93,62 %
27.12.2018 05:22 0,1 C -0,6 C -1,1 C 93 % 1025,8 hPa 0,0 l/m 0 min 0 min 0 W/m 0,0 km/h (0 Bft) 95,74 %
27.12.2018 05:24 0,1 C -0,6 C -1,1 C 93 % 1025,7 hPa 0,0 l/m 0 min 0 min 0 W/m 0,0 km/h (0 Bft) 95,74 %
27.12.2018 05:26 0,0 C -0,6 C -1,1 C 93 % 1025,7 hPa 0,0 l/m 0 min 0 min 0 W/m 0,0 km/h (0 Bft) 91,30 %
27.12.2018 05:28 0,0 C -0,6 C -1,1 C 93 % 1025,7 hPa 0,0 l/m 0 min 0 min 0 W/m 0,0 km/h (0 Bft) 93,62 %
27.12.2018 05:30 0,0 C -0,6 C -1,1 C 93 % 1025,7 hPa 0,0 l/m 0 min 0 min 0 W/m 0,0 km/h (0 Bft) 95,74 %
27.12.2018 05:32 0,0 C -0,6 C -1,1 C 93 % 1025,7 hPa 0,0 l/m 0 min 0 min 0 W/m 0,0 km/h (0 Bft) 93,62 %
27.12.2018 05:34 0,0 C -0,6 C -1,1 C 93 % 1025,7 hPa 0,0 l/m 0 min 0 min 0 W/m 0,0 km/h (0 Bft) 95,74 %
27.12.2018 05:36 0,0 C -0,6 C -1,1 C 93 % 1025,7 hPa 0,0 l/m 0 min 0 min 0 W/m 0,0 km/h (0 Bft) 96,55 %
27.12.2018 05:38 0,0 C -0,6 C -1,1 C 93 % 1025,6 hPa 0,0 l/m 0 min 0 min 0 W/m 6,4 km/h (2 Bft) 95,74 %
27.12.2018 05:40 0,0 C -0,6 C -1,1 C 93 % 1025,7 hPa 0,0 l/m 0 min 0 min 0 W/m 0,0 km/h (0 Bft) 91,43 %
27.12.2018 05:42 0,1 C -0,6 C -1,1 C 93 % 1025,7 hPa 0,0 l/m 0 min 0 min 0 W/m 3,2 km/h (1 Bft) 95,74 %
27.12.2018 05:44 0,1 C -0,6 C -1,1 C 93 % 1025,7 hPa 0,0 l/m 0 min 0 min 0 W/m 3,2 km/h (1 Bft) 93,22 %
27.12.2018 05:46 0,1 C -0,6 C -1,1 C 93 % 1025,7 hPa 0,0 l/m 0 min 0 min 0 W/m 3,2 km/h (1 Bft) 97,14 %
27.12.2018 05:48 0,1 C -0,6 C -1,1 C 93 % 1025,7 hPa 0,0 l/m 0 min 0 min 0 W/m 3,2 km/h (1 Bft) 95,74 %
27.12.2018 05:50 0,1 C -0,6 C -1,1 C 93 % 1025,6 hPa 0,0 l/m 0 min 0 min 0 W/m 6,4 km/h (2 Bft) 94,83 %
27.12.2018 05:52 0,1 C -0,6 C -1,1 C 93 % 1025,7 hPa 0,0 l/m 0 min 0 min 0 W/m 9,7 km/h (2 Bft) 94,29 %
27.12.2018 05:54 0,1 C -0,6 C -1,1 C 93 % 1025,6 hPa 0,0 l/m 0 min 0 min 0 W/m 3,2 km/h (1 Bft) 97,87 %
27.12.2018 05:56 0,1 C -0,6 C -1,1 C 93 % 1025,7 hPa 0,0 l/m 0 min 0 min 0 W/m 0,0 km/h (0 Bft) 97,87 %
27.12.2018 05:58 0,0 C -0,6 C -1,1 C 93 % 1025,6 hPa 0,0 l/m 0 min 0 min 0 W/m 0,0 km/h (0 Bft) 95,74 %
27.12.2018 06:00 0,0 C -0,6 C -1,1 C 93 % 1025,6 hPa 0,0 l/m 0 min 0 min 0 W/m 3,2 km/h (1 Bft) 100,00 %
27.12.2018 06:02 0,0 C -0,6 C -1,1 C 93 % 1025,6 hPa 0,0 l/m 0 min 0 min 0 W/m 0,0 km/h (0 Bft) 100,00 %
27.12.2018 06:04 0,0 C -0,6 C -1,1 C 93 % 1025,5 hPa 0,0 l/m 0 min 0 min 0 W/m 0,0 km/h (0 Bft) 100,00 %
27.12.2018 06:08 0,0 C -0,6 C -1,1 C 93 % 1025,5 hPa 0,0 l/m 0 min 0 min 0 W/m 9,7 km/h (2 Bft) 98,78 %
27.12.2018 06:10 0,0 C -0,6 C -1,1 C 93 % 1025,5 hPa 0,0 l/m 0 min 0 min 0 W/m 12,9 km/h (3 Bft) 100,00 %
27.12.2018 06:12 0,0 C -0,6 C -1,1 C 93 % 1025,5 hPa 0,0 l/m 0 min 0 min 0 W/m 9,7 km/h (2 Bft) 100,00 %
27.12.2018 06:14 0,0 C -0,6 C -1,1 C 93 % 1025,5 hPa 0,0 l/m 0 min 0 min 0 W/m 6,4 km/h (2 Bft) 100,00 %
27.12.2018 06:16 0,0 C -0,6 C -1,1 C 93 % 1025,5 hPa 0,0 l/m 0 min 0 min 0 W/m 0,0 km/h (0 Bft) 97,87 %
27.12.2018 06:18 0,0 C -0,6 C -1,1 C 93 % 1025,5 hPa 0,0 l/m 0 min 0 min 0 W/m 6,4 km/h (2 Bft) 100,00 %
27.12.2018 06:20 0,0 C -0,6 C -1,1 C 93 % 1025,5 hPa 0,0 l/m 0 min 0 min 0 W/m 3,2 km/h (1 Bft) 100,00 %
27.12.2018 06:22 0,0 C -0,6 C -1,1 C 93 % 1025,5 hPa 0,0 l/m 0 min 0 min 0 W/m 0,0 km/h (0 Bft) 97,87 %
27.12.2018 06:24 0,0 C -0,6 C -1,1 C 93 % 1025,5 hPa 0,0 l/m 0 min 0 min 0 W/m 3,2 km/h (1 Bft) 100,00 %
27.12.2018 06:26 0,0 C -0,6 C -1,1 C 93 % 1025,5 hPa 0,0 l/m 0 min 0 min 0 W/m 3,2 km/h (1 Bft) 100,00 %
27.12.2018 06:28 0,0 C -0,6 C -1,1 C 93 % 1025,6 hPa 0,0 l/m 0 min 0 min 0 W/m 3,2 km/h (1 Bft) 100,00 %
27.12.2018 06:30 -0,1 C -0,6 C -1,1 C 93 % 1025,6 hPa 0,0 l/m 0 min 0 min 0 W/m 3,2 km/h (1 Bft) 100,00 %
27.12.2018 06:32 -0,1 C -0,6 C -1,1 C 93 % 1025,6 hPa 0,0 l/m 0 min 0 min 0 W/m 0,0 km/h (0 Bft) 100,00 %
27.12.2018 06:34 -0,1 C -0,6 C -1,1 C 93 % 1025,6 hPa 0,0 l/m 0 min 0 min 0 W/m 0,0 km/h (0 Bft) 100,00 %
27.12.2018 06:36 -0,1 C -0,6 C -1,1 C 93 % 1025,7 hPa 0,0 l/m 0 min 0 min 0 W/m 0,0 km/h (0 Bft) 100,00 %
27.12.2018 06:38 -0,1 C -0,6 C -1,1 C 93 % 1025,7 hPa 0,0 l/m 0 min 0 min 0 W/m 0,0 km/h (0 Bft) 100,00 %
27.12.2018 06:40 -0,1 C -0,6 C -1,1 C 93 % 1025,7 hPa 0,0 l/m 0 min 0 min 0 W/m 0,0 km/h (0 Bft) 97,14 %
27.12.2018 06:42 -0,1 C -0,6 C -1,7 C 93 % 1025,7 hPa 0,0 l/m 0 min 0 min 0 W/m 3,2 km/h (1 Bft) 96,61 %
27.12.2018 06:44 -0,1 C -0,6 C -1,7 C 93 % 1025,7 hPa 0,0 l/m 0 min 0 min 0 W/m 0,0 km/h (0 Bft) 97,14 %
27.12.2018 06:46 -0,1 C -0,6 C -1,7 C 93 % 1025,8 hPa 0,0 l/m 0 min 0 min 0 W/m 0,0 km/h (0 Bft) 97,87 %
27.12.2018 06:48 -0,1 C -0,6 C -1,7 C 93 % 1025,8 hPa 0,0 l/m 0 min 0 min 0 W/m 3,2 km/h (1 Bft) 98,28 %
27.12.2018 06:50 -0,1 C -0,6 C -1,1 C 93 % 1025,8 hPa 0,0 l/m 0 min 0 min 0 W/m 6,4 km/h (2 Bft) 97,14 %
27.12.2018 06:52 -0,1 C -0,6 C -1,1 C 93 % 1025,8 hPa 0,0 l/m 0 min 0 min 0 W/m 16,1 km/h (3 Bft) 97,87 %
27.12.2018 06:54 -0,1 C -0,6 C -1,1 C 93 % 1025,8 hPa 0,0 l/m 0 min 0 min 0 W/m 12,9 km/h (3 Bft) 97,87 %
27.12.2018 06:56 -0,1 C -0,6 C -1,1 C 93 % 1025,8 hPa 0,0 l/m 0 min 0 min 0 W/m 9,7 km/h (2 Bft) 98,28 %
27.12.2018 06:58 -0,1 C -0,6 C -1,1 C 93 % 1025,8 hPa 0,0 l/m 0 min 0 min 0 W/m 9,7 km/h (2 Bft) 97,22 %
27.12.2018 07:00 -0,1 C -0,6 C -1,1 C 93 % 1025,7 hPa 0,0 l/m 0 min 0 min 0 W/m 9,7 km/h (2 Bft) 95,65 %
27.12.2018 07:02 -0,1 C -0,6 C -1,1 C 93 % 1025,7 hPa 0,0 l/m 0 min 0 min 0 W/m 12,9 km/h (3 Bft) 97,87 %
27.12.2018 07:04 -0,1 C -0,6 C -1,1 C 93 % 1025,8 hPa 0,0 l/m 0 min 0 min 0 W/m 9,7 km/h (2 Bft) 97,87 %
27.12.2018 07:06 -0,1 C -0,6 C -1,1 C 93 % 1025,8 hPa 0,0 l/m 0 min 0 min 0 W/m 16,1 km/h (3 Bft) 96,61 %
27.12.2018 07:08 -0,1 C -0,6 C -1,1 C 93 % 1025,7 hPa 0,0 l/m 0 min 0 min 0 W/m 9,7 km/h (2 Bft) 100,00 %
27.12.2018 07:10 -0,1 C -0,6 C -1,1 C 93 % 1025,7 hPa 0,0 l/m 0 min 0 min 0 W/m 9,7 km/h (2 Bft) 97,87 %
27.12.2018 07:12 -0,1 C -0,6 C -1,1 C 93 % 1025,6 hPa 0,0 l/m 0 min 0 min 0 W/m 9,7 km/h (2 Bft) 97,83 %
27.12.2018 07:14 -0,1 C -0,6 C -1,1 C 93 % 1025,7 hPa 0,0 l/m 0 min 0 min 0 W/m 3,2 km/h (1 Bft) 97,87 %
27.12.2018 07:16 -0,1 C -0,6 C -1,1 C 93 % 1025,7 hPa 0,0 l/m 0 min 0 min 0 W/m 6,4 km/h (2 Bft) 93,62 %
27.12.2018 07:18 -0,1 C -0,6 C -1,1 C 93 % 1025,7 hPa 0,0 l/m 0 min 0 min 0 W/m 0,0 km/h (0 Bft) 97,87 %
27.12.2018 07:20 -0,1 C -0,6 C -1,1 C 93 % 1025,7 hPa 0,0 l/m 0 min 0 min 0 W/m 3,2 km/h (1 Bft) 95,74 %
27.12.2018 07:22 -0,1 C -0,6 C -1,1 C 93 % 1025,7 hPa 0,0 l/m 0 min 0 min 0 W/m 9,7 km/h (2 Bft) 97,83 %
27.12.2018 07:24 -0,1 C -0,6 C -1,1 C 93 % 1025,7 hPa 0,0 l/m 0 min 0 min 0 W/m 12,9 km/h (3 Bft) 97,87 %
27.12.2018 07:26 0,0 C -0,6 C -1,1 C 93 % 1025,7 hPa 0,0 l/m 0 min 0 min 0 W/m 6,4 km/h (2 Bft) 97,87 %
27.12.2018 07:28 -0,1 C -0,6 C -1,1 C 93 % 1025,7 hPa 0,0 l/m 0 min 0 min 0 W/m 6,4 km/h (2 Bft) 97,87 %
27.12.2018 07:30 -0,1 C -0,6 C -1,1 C 93 % 1025,7 hPa 0,0 l/m 0 min 0 min 0 W/m 9,7 km/h (2 Bft) 97,87 %
27.12.2018 07:32 -0,1 C -0,6 C -1,1 C 93 % 1025,7 hPa 0,0 l/m 0 min 0 min 0 W/m 3,2 km/h (1 Bft) 95,74 %
27.12.2018 07:34 0,0 C -0,6 C -1,1 C 93 % 1025,7 hPa 0,0 l/m 0 min 0 min 0 W/m 12,9 km/h (3 Bft) 95,65 %
27.12.2018 07:36 0,0 C -0,6 C -1,1 C 93 % 1025,7 hPa 0,0 l/m 0 min 0 min 0 W/m 9,7 km/h (2 Bft) 98,31 %
27.12.2018 07:38 0,0 C -0,6 C -1,1 C 93 % 1025,7 hPa 0,0 l/m 0 min 0 min 0 W/m 3,2 km/h (1 Bft) 91,43 %
27.12.2018 07:40 0,0 C -0,6 C -1,1 C 93 % 1025,6 hPa 0,0 l/m 0 min 0 min 0 W/m 12,9 km/h (3 Bft) 97,87 %
27.12.2018 07:42 0,0 C -0,6 C -1,1 C 93 % 1025,7 hPa 0,0 l/m 0 min 0 min 0 W/m 6,4 km/h (2 Bft) 95,74 %
27.12.2018 07:44 0,0 C -0,6 C -1,1 C 93 % 1025,7 hPa 0,0 l/m 0 min 0 min 0 W/m 3,2 km/h (1 Bft) 100,00 %
27.12.2018 07:46 0,0 C -0,6 C -1,1 C 93 % 1025,8 hPa 0,0 l/m 0 min 0 min 0 W/m 3,2 km/h (1 Bft) 100,00 %
27.12.2018 07:48 0,0 C -0,6 C -1,1 C 93 % 1025,7 hPa 0,0 l/m 0 min 0 min 0 W/m 3,2 km/h (1 Bft) 97,87 %
27.12.2018 07:50 -0,1 C -0,6 C -1,1 C 93 % 1025,7 hPa 0,0 l/m 0 min 0 min 0 W/m 6,4 km/h (2 Bft) 95,74 %
27.12.2018 07:52 -0,1 C -0,6 C -1,1 C 93 % 1025,7 hPa 0,0 l/m 0 min 0 min 0 W/m 3,2 km/h (1 Bft) 93,62 %
27.12.2018 07:54 -0,1 C -0,6 C -1,1 C 93 % 1025,7 hPa 0,0 l/m 0 min 0 min 0 W/m 3,2 km/h (1 Bft) 95,74 %
27.12.2018 07:56 -0,1 C -0,6 C -1,1 C 93 % 1025,8 hPa 0,0 l/m 0 min 0 min 0 W/m 0,0 km/h (0 Bft) 95,74 %
27.12.2018 07:58 -0,1 C -0,6 C -1,1 C 93 % 1025,8 hPa 0,0 l/m 0 min 0 min 0 W/m 3,2 km/h (1 Bft) 93,48 %
27.12.2018 08:00 -0,1 C -0,6 C -1,1 C 93 % 1025,8 hPa 0,0 l/m 0 min 0 min 0 W/m 0,0 km/h (0 Bft) 91,49 %
27.12.2018 08:02 -0,1 C -0,6 C -1,1 C 93 % 1025,8 hPa 0,0 l/m 0 min 0 min 0 W/m 0,0 km/h (0 Bft) 93,62 %
27.12.2018 08:04 -0,1 C -0,6 C -1,1 C 93 % 1025,7 hPa 0,0 l/m 0 min 0 min 0 W/m 3,2 km/h (1 Bft) 87,23 %
27.12.2018 08:06 -0,1 C -0,6 C -1,1 C 93 % 1025,8 hPa 0,0 l/m 0 min 0 min 0 W/m 0,0 km/h (0 Bft) 94,83 %
27.12.2018 08:08 -0,1 C -0,6 C -1,7 C 93 % 1025,8 hPa 0,0 l/m 0 min 0 min 0 W/m 3,2 km/h (1 Bft) 94,44 %
27.12.2018 08:10 -0,1 C -0,6 C -1,1 C 93 % 1025,7 hPa 0,0 l/m 0 min 0 min 0 W/m 6,4 km/h (2 Bft) 95,65 %
27.12.2018 08:12 -0,1 C -0,6 C -1,7 C 93 % 1025,8 hPa 0,0 l/m 0 min 0 min 0 W/m 3,2 km/h (1 Bft) 95,74 %
27.12.2018 08:14 -0,1 C -0,6 C -1,7 C 93 % 1025,7 hPa 0,0 l/m 0 min 0 min 0 W/m 0,0 km/h (0 Bft) 95,74 %
27.12.2018 08:16 -0,1 C -0,6 C -1,7 C 93 % 1025,8 hPa 0,0 l/m 0 min 0 min 0 W/m 0,0 km/h (0 Bft) 93,62 %
27.12.2018 08:18 -0,1 C -0,6 C -1,7 C 93 % 1025,8 hPa 0,0 l/m 0 min 0 min 0 W/m 0,0 km/h (0 Bft) 95,74 %
27.12.2018 08:20 -0,1 C -0,6 C -1,7 C 93 % 1025,8 hPa 0,0 l/m 0 min 0 min 0 W/m 3,2 km/h (1 Bft) 95,65 %
27.12.2018 08:22 -0,1 C -0,6 C -1,1 C 93 % 1025,8 hPa 0,0 l/m 0 min 0 min 0 W/m 9,7 km/h (2 Bft) 93,62 %
27.12.2018 08:24 -0,1 C -0,6 C -1,1 C 93 % 1025,8 hPa 0,0 l/m 0 min 0 min 0 W/m 6,4 km/h (2 Bft) 95,74 %
27.12.2018 08:26 -0,1 C -0,6 C -1,1 C 93 % 1025,8 hPa 0,0 l/m 0 min 0 min 0 W/m 0,0 km/h (0 Bft) 95,74 %
27.12.2018 08:28 -0,2 C -0,6 C -1,1 C 93 % 1025,7 hPa 0,0 l/m 0 min 0 min 0 W/m 3,2 km/h (1 Bft) 95,74 %
27.12.2018 08:30 -0,1 C -0,6 C -1,1 C 93 % 1025,8 hPa 0,0 l/m 0 min 0 min 0 W/m 3,2 km/h (1 Bft) 95,74 %
27.12.2018 08:32 -0,1 C -0,6 C -1,1 C 93 % 1025,8 hPa 0,0 l/m 0 min 0 min 0 W/m 6,4 km/h (2 Bft) 97,83 %
27.12.2018 08:34 -0,1 C -0,6 C -1,1 C 93 % 1025,7 hPa 0,0 l/m 0 min 0 min 0 W/m 6,4 km/h (2 Bft) 97,87 %
27.12.2018 08:36 -0,1 C -0,6 C -1,1 C 93 % 1025,8 hPa 0,0 l/m 0 min 0 min 1 W/m 3,2 km/h (1 Bft) 96,61 %
27.12.2018 08:38 -0,1 C -0,6 C -1,1 C 93 % 1025,8 hPa 0,0 l/m 0 min 0 min 5 W/m 3,2 km/h (1 Bft) 100,00 %
27.12.2018 08:40 -0,1 C -0,6 C -1,1 C 93 % 1025,8 hPa 0,0 l/m 0 min 0 min 5 W/m 9,7 km/h (2 Bft) 97,87 %
27.12.2018 08:42 -0,1 C -0,6 C -1,1 C 93 % 1025,8 hPa 0,0 l/m 0 min 0 min 7 W/m 6,4 km/h (2 Bft) 100,00 %
27.12.2018 08:44 -0,1 C -0,6 C -1,1 C 93 % 1025,8 hPa 0,0 l/m 0 min 0 min 9 W/m 9,7 km/h (2 Bft) 100,00 %
27.12.2018 08:46 -0,1 C -0,6 C -1,1 C 93 % 1025,7 hPa 0,0 l/m 0 min 0 min 10 W/m 3,2 km/h (1 Bft) 97,87 %
27.12.2018 08:48 -0,1 C -0,6 C -1,1 C 93 % 1025,8 hPa 0,0 l/m 0 min 0 min 11 W/m 0,0 km/h (0 Bft) 97,87 %
27.12.2018 08:50 -0,1 C -0,6 C -1,1 C 93 % 1025,8 hPa 0,0 l/m 0 min 0 min 11 W/m 0,0 km/h (0 Bft) 100,00 %
27.12.2018 08:52 -0,1 C 0,0 C -1,1 C 93 % 1025,8 hPa 0,0 l/m 0 min 0 min 12 W/m 3,2 km/h (1 Bft) 100,00 %
27.12.2018 08:54 -0,1 C 0,0 C -1,1 C 93 % 1025,9 hPa 0,0 l/m 0 min 0 min 12 W/m 0,0 km/h (0 Bft) 100,00 %
27.12.2018 08:56 -0,1 C 0,0 C -1,1 C 93 % 1025,9 hPa 0,0 l/m 0 min 0 min 14 W/m 0,0 km/h (0 Bft) 100,00 %
27.12.2018 08:58 -0,1 C 0,0 C -1,1 C 93 % 1025,9 hPa 0,0 l/m 0 min 0 min 14 W/m 0,0 km/h (0 Bft) 100,00 %
27.12.2018 09:00 -0,1 C 0,0 C -1,1 C 92 % 1025,9 hPa 0,0 l/m 0 min 0 min 14 W/m 0,0 km/h (0 Bft) 100,00 %
27.12.2018 09:02 -0,1 C 0,0 C -1,1 C 92 % 1025,9 hPa 0,0 l/m 0 min 0 min 16 W/m 3,2 km/h (1 Bft) 100,00 %
27.12.2018 09:04 -0,1 C 0,0 C -1,1 C 92 % 1025,8 hPa 0,0 l/m 0 min 0 min 16 W/m 3,2 km/h (1 Bft) 95,74 %
27.12.2018 09:06 -0,1 C 0,0 C -1,1 C 92 % 1025,9 hPa 0,0 l/m 0 min 0 min 17 W/m 0,0 km/h (0 Bft) 100,00 %
27.12.2018 09:08 -0,1 C 0,0 C -0,6 C 92 % 1025,9 hPa 0,0 l/m 0 min 0 min 18 W/m 0,0 km/h (0 Bft) 100,00 %
27.12.2018 09:10 -0,1 C 0,0 C -1,1 C 92 % 1025,8 hPa 0,0 l/m 0 min 0 min 19 W/m 0,0 km/h (0 Bft) 97,87 %
27.12.2018 09:12 0,0 C 0,0 C -1,1 C 92 % 1025,8 hPa 0,0 l/m 0 min 0 min 20 W/m 0,0 km/h (0 Bft) 100,00 %
27.12.2018 09:14 0,0 C 0,0 C -0,6 C 92 % 1025,8 hPa 0,0 l/m 0 min 0 min 21 W/m 3,2 km/h (1 Bft) 100,00 %
27.12.2018 09:16 0,0 C 0,0 C -0,6 C 92 % 1025,8 hPa 0,0 l/m 0 min 0 min 23 W/m 3,2 km/h (1 Bft) 100,00 %
27.12.2018 09:18 0,0 C 0,0 C -0,6 C 92 % 1025,7 hPa 0,0 l/m 0 min 0 min 24 W/m 3,2 km/h (1 Bft) 100,00 %
27.12.2018 09:20 0,1 C 0,0 C -0,6 C 92 % 1025,7 hPa 0,0 l/m 0 min 0 min 25 W/m 3,2 km/h (1 Bft) 100,00 %
27.12.2018 09:22 0,1 C 0,0 C -0,6 C 92 % 1025,7 hPa 0,0 l/m 0 min 0 min 26 W/m 0,0 km/h (0 Bft) 97,87 %
27.12.2018 09:24 0,1 C 0,0 C -0,6 C 92 % 1025,7 hPa 0,0 l/m 0 min 0 min 26 W/m 0,0 km/h (0 Bft) 100,00 %
27.12.2018 09:26 0,1 C 0,0 C -0,6 C 92 % 1025,7 hPa 0,0 l/m 0 min 0 min 28 W/m 3,2 km/h (1 Bft) 100,00 %
27.12.2018 09:28 0,1 C 0,0 C -0,6 C 92 % 1025,7 hPa 0,0 l/m 0 min 0 min 29 W/m 6,4 km/h (2 Bft) 100,00 %
27.12.2018 09:30 0,1 C 0,0 C -0,6 C 92 % 1025,6 hPa 0,0 l/m 0 min 0 min 31 W/m 12,9 km/h (3 Bft) 100,00 %
27.12.2018 09:32 0,2 C 0,0 C -0,6 C 92 % 1025,6 hPa 0,0 l/m 0 min 0 min 32 W/m 16,1 km/h (3 Bft) 100,00 %
27.12.2018 09:34 0,2 C 0,0 C -0,6 C 92 % 1025,6 hPa 0,0 l/m 0 min 0 min 33 W/m 9,7 km/h (2 Bft) 100,00 %
27.12.2018 09:36 0,2 C 0,0 C -0,6 C 92 % 1025,6 hPa 0,0 l/m 0 min 0 min 34 W/m 16,1 km/h (3 Bft) 100,00 %
27.12.2018 09:38 0,2 C 0,0 C -0,6 C 92 % 1025,6 hPa 0,0 l/m 0 min 0 min 36 W/m 16,1 km/h (3 Bft) 100,00 %
27.12.2018 09:40 0,2 C 0,6 C -0,6 C 92 % 1025,5 hPa 0,0 l/m 0 min 0 min 37 W/m 6,4 km/h (2 Bft) 100,00 %
27.12.2018 09:42 0,2 C 0,6 C -0,6 C 92 % 1025,5 hPa 0,0 l/m 0 min 0 min 39 W/m 3,2 km/h (1 Bft) 100,00 %
27.12.2018 09:44 0,3 C 0,6 C -0,6 C 92 % 1025,5 hPa 0,0 l/m 0 min 0 min 41 W/m 9,7 km/h (2 Bft) 100,00 %
27.12.2018 09:46 0,3 C 0,6 C -0,6 C 92 % 1025,5 hPa 0,0 l/m 0 min 0 min 43 W/m 12,9 km/h (3 Bft) 97,87 %
27.12.2018 09:48 0,3 C 0,6 C -0,6 C 92 % 1025,5 hPa 0,0 l/m 0 min 0 min 46 W/m 0,0 km/h (0 Bft) 100,00 %
27.12.2018 09:50 0,3 C 0,6 C -0,6 C 92 % 1025,5 hPa 0,0 l/m 0 min 0 min 47 W/m 0,0 km/h (0 Bft) 100,00 %
27.12.2018 09:52 0,3 C 0,6 C -0,6 C 92 % 1025,6 hPa 0,0 l/m 0 min 0 min 49 W/m 12,9 km/h (3 Bft) 100,00 %
27.12.2018 09:54 0,4 C 0,6 C -0,6 C 92 % 1025,6 hPa 0,0 l/m 0 min 0 min 51 W/m 9,7 km/h (2 Bft) 97,83 %
27.12.2018 09:56 0,4 C 0,6 C 0,0 C 92 % 1025,5 hPa 0,0 l/m 0 min 0 min 53 W/m 12,9 km/h (3 Bft) 97,87 %
27.12.2018 09:58 0,4 C 0,6 C 0,0 C 92 % 1025,6 hPa 0,0 l/m 0 min 0 min 54 W/m 6,4 km/h (2 Bft) 100,00 %
27.12.2018 10:00 0,4 C 0,6 C 0,0 C 92 % 1025,6 hPa 0,0 l/m 0 min 0 min 57 W/m 12,9 km/h (3 Bft) 97,87 %
27.12.2018 10:02 0,5 C 0,6 C 0,0 C 92 % 1025,4 hPa 0,0 l/m 0 min 0 min 59 W/m 9,7 km/h (2 Bft) 100,00 %
27.12.2018 10:04 0,5 C 0,6 C 0,0 C 92 % 1025,5 hPa 0,0 l/m 0 min 0 min 63 W/m 12,9 km/h (3 Bft) 100,00 %
27.12.2018 10:06 0,5 C 1,1 C 0,0 C 92 % 1025,5 hPa 0,0 l/m 0 min 0 min 66 W/m 9,7 km/h (2 Bft) 98,28 %
27.12.2018 10:08 0,5 C 1,1 C 0,0 C 92 % 1025,5 hPa 0,0 l/m 0 min 0 min 70 W/m 12,9 km/h (3 Bft) 94,29 %
27.12.2018 10:10 0,5 C 1,1 C 0,0 C 92 % 1025,5 hPa 0,0 l/m 0 min 0 min 74 W/m 9,7 km/h (2 Bft) 93,62 %
27.12.2018 10:12 0,5 C 1,1 C 0,0 C 92 % 1025,5 hPa 0,0 l/m 0 min 0 min 77 W/m 9,7 km/h (2 Bft) 95,74 %
27.12.2018 10:14 0,5 C 1,1 C 0,0 C 92 % 1025,4 hPa 0,0 l/m 0 min 0 min 80 W/m 12,9 km/h (3 Bft) 95,74 %
27.12.2018 10:16 0,6 C 1,1 C 0,0 C 92 % 1025,4 hPa 0,0 l/m 0 min 0 min 84 W/m 16,1 km/h (3 Bft) 93,62 %
27.12.2018 10:18 0,7 C 1,1 C 0,0 C 92 % 1025,4 hPa 0,0 l/m 0 min 0 min 85 W/m 16,1 km/h (3 Bft) 95,65 %
27.12.2018 10:20 0,7 C 1,7 C 0,0 C 92 % 1025,4 hPa 0,0 l/m 0 min 0 min 92 W/m 12,9 km/h (3 Bft) 95,74 %
27.12.2018 10:22 0,7 C 1,7 C 0,6 C 91 % 1025,4 hPa 0,0 l/m 2 min 0 min 101 W/m 9,7 km/h (2 Bft) 97,87 %
27.12.2018 10:24 0,8 C 1,7 C 0,6 C 91 % 1025,4 hPa 0,0 l/m 2 min 0 min 104 W/m 12,9 km/h (3 Bft) 97,87 %
27.12.2018 10:26 0,8 C 1,7 C 0,6 C 91 % 1025,4 hPa 0,0 l/m 0 min 0 min 100 W/m 9,7 km/h (2 Bft) 95,74 %
27.12.2018 10:28 0,9 C 1,7 C 0,6 C 91 % 1025,4 hPa 0,0 l/m 0 min 0 min 98 W/m 12,9 km/h (3 Bft) 93,62 %
27.12.2018 10:30 0,9 C 1,7 C 0,6 C 91 % 1025,4 hPa 0,0 l/m 2 min 0 min 105 W/m 12,9 km/h (3 Bft) 93,48 %
27.12.2018 10:32 0,9 C 2,2 C 0,6 C 91 % 1025,4 hPa 0,0 l/m 2 min 0 min 113 W/m 9,7 km/h (2 Bft) 93,62 %
27.12.2018 10:34 1,0 C 2,2 C 0,6 C 91 % 1025,3 hPa 0,0 l/m 2 min 0 min 123 W/m 3,2 km/h (1 Bft) 93,62 %
27.12.2018 10:36 1,0 C 2,2 C 0,6 C 91 % 1025,3 hPa 0,0 l/m 2 min 0 min 131 W/m 16,1 km/h (3 Bft) 93,62 %
27.12.2018 10:38 1,1 C 2,8 C 0,6 C 91 % 1025,4 hPa 0,0 l/m 2 min 0 min 133 W/m 9,7 km/h (2 Bft) 93,62 %
27.12.2018 10:40 1,1 C 2,8 C 0,6 C 91 % 1025,4 hPa 0,0 l/m 2 min 0 min 131 W/m 0,0 km/h (0 Bft) 93,48 %
27.12.2018 10:42 1,2 C 2,8 C 0,6 C 91 % 1025,3 hPa 0,0 l/m 2 min 0 min 140 W/m 6,4 km/h (2 Bft) 87,23 %
27.12.2018 10:44 1,2 C 2,8 C 0,6 C 90 % 1025,4 hPa 0,0 l/m 2 min 0 min 150 W/m 9,7 km/h (2 Bft) 93,62 %
27.12.2018 10:46 1,3 C 2,8 C 1,1 C 91 % 1025,4 hPa 0,0 l/m 2 min 0 min 154 W/m 12,9 km/h (3 Bft) 89,36 %
27.12.2018 10:48 1,3 C 3,3 C 1,1 C 90 % 1025,4 hPa 0,0 l/m 2 min 0 min 137 W/m 6,4 km/h (2 Bft) 93,62 %
27.12.2018 10:50 1,4 C 3,3 C 1,1 C 90 % 1025,4 hPa 0,0 l/m 2 min 0 min 151 W/m 9,7 km/h (2 Bft) 93,62 %
27.12.2018 10:52 1,4 C 3,3 C 1,1 C 90 % 1025,3 hPa 0,0 l/m 2 min 0 min 157 W/m 12,9 km/h (3 Bft) 93,48 %
27.12.2018 10:54 1,5 C 3,3 C 1,1 C 90 % 1025,3 hPa 0,0 l/m 2 min 0 min 155 W/m 9,7 km/h (2 Bft) 93,62 %
27.12.2018 10:56 1,6 C 2,8 C 1,1 C 90 % 1025,4 hPa 0,0 l/m 2 min 0 min 138 W/m 9,7 km/h (2 Bft) 93,62 %
27.12.2018 10:58 1,6 C 2,8 C 1,1 C 90 % 1025,4 hPa 0,0 l/m 2 min 0 min 135 W/m 16,1 km/h (3 Bft) 91,49 %
27.12.2018 11:00 1,7 C 2,8 C 1,1 C 89 % 1025,4 hPa 0,0 l/m 2 min 0 min 138 W/m 9,7 km/h (2 Bft) 93,62 %
27.12.2018 11:02 1,7 C 2,8 C 1,1 C 89 % 1025,4 hPa 0,0 l/m 2 min 0 min 134 W/m 6,4 km/h (2 Bft) 95,74 %
27.12.2018 11:04 1,7 C 2,8 C 1,1 C 89 % 1025,4 hPa 0,0 l/m 2 min 0 min 147 W/m 9,7 km/h (2 Bft) 95,65 %
27.12.2018 11:06 1,8 C 3,3 C 1,1 C 89 % 1025,3 hPa 0,0 l/m 2 min 0 min 150 W/m 9,7 km/h (2 Bft) 95,74 %
27.12.2018 11:08 1,8 C 3,9 C 1,7 C 89 % 1025,3 hPa 0,0 l/m 2 min 0 min 151 W/m 9,7 km/h (2 Bft) 95,74 %
27.12.2018 11:10 1,8 C 3,9 C 1,7 C 89 % 1025,3 hPa 0,0 l/m 2 min 0 min 153 W/m 9,7 km/h (2 Bft) 95,74 %
27.12.2018 11:12 1,9 C 3,9 C 1,7 C 89 % 1025,4 hPa 0,0 l/m 2 min 0 min 153 W/m 6,4 km/h (2 Bft) 95,74 %
27.12.2018 11:14 1,9 C 3,9 C 1,7 C 89 % 1025,3 hPa 0,0 l/m 2 min 0 min 157 W/m 6,4 km/h (2 Bft) 97,87 %
27.12.2018 11:16 2,0 C 3,9 C 1,7 C 88 % 1025,2 hPa 0,0 l/m 2 min 0 min 133 W/m 6,4 km/h (2 Bft) 97,83 %
27.12.2018 11:18 2,0 C 3,3 C 1,7 C 88 % 1025,3 hPa 0,0 l/m 0 min 0 min 116 W/m 3,2 km/h (1 Bft) 97,87 %
27.12.2018 11:20 2,1 C 2,8 C 1,7 C 88 % 1025,3 hPa 0,0 l/m 0 min 0 min 110 W/m 12,9 km/h (3 Bft) 97,87 %
27.12.2018 11:22 2,1 C 2,8 C 1,7 C 88 % 1025,3 hPa 0,0 l/m 0 min 0 min 119 W/m 3,2 km/h (1 Bft) 93,62 %
27.12.2018 11:24 2,1 C 2,8 C 1,7 C 88 % 1025,2 hPa 0,0 l/m 0 min 0 min 117 W/m 9,7 km/h (2 Bft) 97,87 %
27.12.2018 11:26 2,2 C 2,8 C 1,7 C 88 % 1025,2 hPa 0,0 l/m 0 min 0 min 114 W/m 6,4 km/h (2 Bft) 97,87 %
27.12.2018 11:28 2,2 C 2,8 C 1,7 C 88 % 1025,2 hPa 0,0 l/m 0 min 0 min 116 W/m 6,4 km/h (2 Bft) 95,65 %
27.12.2018 11:30 2,2 C 3,3 C 1,7 C 87 % 1025,2 hPa 0,0 l/m 0 min 0 min 123 W/m 6,4 km/h (2 Bft) 97,87 %
27.12.2018 11:32 2,2 C 3,3 C 1,7 C 88 % 1025,1 hPa 0,0 l/m 0 min 0 min 133 W/m 6,4 km/h (2 Bft) 100,00 %
27.12.2018 11:34 2,2 C 3,3 C 1,7 C 87 % 1025,2 hPa 0,0 l/m 2 min 0 min 139 W/m 6,4 km/h (2 Bft) 100,00 %
27.12.2018 11:36 2,2 C 3,3 C 1,7 C 87 % 1025,2 hPa 0,0 l/m 0 min 0 min 138 W/m 6,4 km/h (2 Bft) 100,00 %
27.12.2018 11:38 2,3 C 3,9 C 1,7 C 87 % 1025,2 hPa 0,0 l/m 0 min 0 min 139 W/m 3,2 km/h (1 Bft) 100,00 %
27.12.2018 11:40 2,3 C 4,4 C 1,7 C 87 % 1025,1 hPa 0,0 l/m 2 min 0 min 157 W/m 0,0 km/h (0 Bft) 100,00 %
27.12.2018 11:42 2,3 C 3,9 C 1,7 C 87 % 1025,1 hPa 0,0 l/m 2 min 0 min 155 W/m 12,9 km/h (3 Bft) 100,00 %
27.12.2018 11:44 2,4 C 3,9 C 1,7 C 87 % 1025,2 hPa 0,0 l/m 2 min 0 min 169 W/m 9,7 km/h (2 Bft) 100,00 %
27.12.2018 11:46 2,4 C 5,0 C 2,2 C 87 % 1025,1 hPa 0,0 l/m 2 min 0 min 172 W/m 3,2 km/h (1 Bft) 97,87 %
27.12.2018 11:48 2,4 C 5,0 C 2,2 C 87 % 1025,2 hPa 0,0 l/m 2 min 0 min 183 W/m 9,7 km/h (2 Bft) 100,00 %
27.12.2018 11:50 2,5 C 5,6 C 2,2 C 87 % 1025,1 hPa 0,0 l/m 2 min 0 min 202 W/m 6,4 km/h (2 Bft) 100,00 %
27.12.2018 11:52 2,6 C 5,6 C 2,2 C 87 % 1025,1 hPa 0,0 l/m 2 min 0 min 205 W/m 6,4 km/h (2 Bft) 100,00 %
27.12.2018 11:54 2,6 C 5,0 C 2,2 C 87 % 1025,1 hPa 0,0 l/m 2 min 0 min 186 W/m 9,7 km/h (2 Bft) 100,00 %
27.12.2018 11:56 2,7 C 5,0 C 2,2 C 87 % 1025,1 hPa 0,0 l/m 2 min 0 min 185 W/m 3,2 km/h (1 Bft) 100,00 %
27.12.2018 11:58 2,7 C 5,6 C 2,2 C 87 % 1025,0 hPa 0,0 l/m 2 min 0 min 180 W/m 0,0 km/h (0 Bft) 97,87 %
27.12.2018 12:00 2,8 C 5,6 C 2,2 C 87 % 1025,1 hPa 0,0 l/m 2 min 0 min 178 W/m 0,0 km/h (0 Bft) 100,00 %
27.12.2018 12:02 2,8 C 6,1 C 2,2 C 87 % 1025,0 hPa 0,0 l/m 2 min 0 min 202 W/m 0,0 km/h (0 Bft) 100,00 %
27.12.2018 12:04 2,8 C 6,1 C 2,2 C 87 % 1025,0 hPa 0,0 l/m 2 min 0 min 205 W/m 9,7 km/h (2 Bft) 95,74 %
27.12.2018 12:08 3,0 C 6,1 C 2,8 C 86 % 1025,0 hPa 0,0 l/m 4 min 0 min 227 W/m 9,7 km/h (2 Bft) 100,00 %
27.12.2018 12:10 3,1 C 6,1 C 2,8 C 86 % 1024,8 hPa 0,0 l/m 2 min 0 min 234 W/m 9,7 km/h (2 Bft) 100,00 %
27.12.2018 12:12 3,1 C 6,1 C 2,8 C 86 % 1024,8 hPa 0,0 l/m 2 min 0 min 225 W/m 12,9 km/h (3 Bft) 100,00 %
27.12.2018 12:14 3,2 C 6,7 C 2,8 C 86 % 1024,8 hPa 0,0 l/m 2 min 0 min 227 W/m 12,9 km/h (3 Bft) 100,00 %
27.12.2018 12:16 3,2 C 6,7 C 2,8 C 86 % 1024,7 hPa 0,0 l/m 2 min 0 min 205 W/m 0,0 km/h (0 Bft) 100,00 %
27.12.2018 12:18 3,3 C 6,1 C 2,8 C 86 % 1024,7 hPa 0,0 l/m 2 min 0 min 196 W/m 9,7 km/h (2 Bft) 100,00 %
27.12.2018 12:20 3,3 C 5,6 C 2,8 C 85 % 1024,5 hPa 0,0 l/m 2 min 0 min 194 W/m 12,9 km/h (3 Bft) 100,00 %
27.12.2018 12:22 3,4 C 5,6 C 2,8 C 85 % 1024,6 hPa 0,0 l/m 2 min 0 min 181 W/m 9,7 km/h (2 Bft) 100,00 %
27.12.2018 12:24 3,4 C 5,6 C 2,8 C 85 % 1024,5 hPa 0,0 l/m 2 min 0 min 204 W/m 9,7 km/h (2 Bft) 100,00 %
27.12.2018 12:26 3,5 C 6,1 C 3,3 C 85 % 1024,4 hPa 0,0 l/m 2 min 0 min 195 W/m 9,7 km/h (2 Bft) 100,00 %
27.12.2018 12:28 3,5 C 6,1 C 3,3 C 85 % 1024,4 hPa 0,0 l/m 2 min 0 min 171 W/m 0,0 km/h (0 Bft) 100,00 %
27.12.2018 12:30 3,6 C 5,6 C 3,3 C 85 % 1024,4 hPa 0,0 l/m 2 min 0 min 161 W/m 9,7 km/h (2 Bft) 100,00 %
27.12.2018 12:32 3,6 C 5,0 C 3,3 C 84 % 1024,3 hPa 0,0 l/m 2 min 0 min 158 W/m 9,7 km/h (2 Bft) 100,00 %
27.12.2018 12:34 3,6 C 5,0 C 2,8 C 84 % 1024,2 hPa 0,0 l/m 2 min 0 min 154 W/m 9,7 km/h (2 Bft) 100,00 %
27.12.2018 12:36 3,7 C 5,0 C 2,8 C 84 % 1024,2 hPa 0,0 l/m 2 min 0 min 152 W/m 12,9 km/h (3 Bft) 100,00 %
27.12.2018 12:38 3,7 C 4,4 C 2,8 C 84 % 1024,2 hPa 0,0 l/m 0 min 0 min 140 W/m 9,7 km/h (2 Bft) 95,74 %
27.12.2018 12:40 3,7 C 5,0 C 2,8 C 84 % 1024,2 hPa 0,0 l/m 2 min 0 min 162 W/m 6,4 km/h (2 Bft) 93,62 %
27.12.2018 12:42 3,7 C 5,0 C 2,8 C 84 % 1024,1 hPa 0,0 l/m 2 min 0 min 163 W/m 6,4 km/h (2 Bft) 95,65 %
27.12.2018 12:44 3,7 C 5,0 C 2,8 C 84 % 1024,2 hPa 0,0 l/m 2 min 0 min 157 W/m 9,7 km/h (2 Bft) 95,74 %
27.12.2018 12:46 3,7 C 5,0 C 2,8 C 84 % 1024,1 hPa 0,0 l/m 2 min 0 min 159 W/m 6,4 km/h (2 Bft) 95,74 %
27.12.2018 12:48 3,7 C 5,0 C 2,8 C 84 % 1024,0 hPa 0,0 l/m 2 min 0 min 159 W/m 9,7 km/h (2 Bft) 95,74 %
27.12.2018 12:50 3,7 C 5,0 C 2,8 C 84 % 1023,9 hPa 0,0 l/m 2 min 0 min 157 W/m 9,7 km/h (2 Bft) 93,62 %
27.12.2018 12:52 3,7 C 5,0 C 2,8 C 84 % 1024,0 hPa 0,0 l/m 2 min 0 min 174 W/m 9,7 km/h (2 Bft) 95,74 %
27.12.2018 12:54 3,7 C 5,6 C 3,3 C 84 % 1024,0 hPa 0,0 l/m 2 min 0 min 184 W/m 9,7 km/h (2 Bft) 95,65 %
27.12.2018 12:56 3,8 C 5,6 C 3,3 C 84 % 1024,0 hPa 0,0 l/m 2 min 0 min 193 W/m 9,7 km/h (2 Bft) 95,74 %
27.12.2018 12:58 3,8 C 6,1 C 3,3 C 84 % 1024,0 hPa 0,0 l/m 2 min 0 min 207 W/m 9,7 km/h (2 Bft) 93,62 %
27.12.2018 13:00 3,8 C 6,1 C 3,3 C 83 % 1023,9 hPa 0,0 l/m 2 min 0 min 177 W/m 9,7 km/h (2 Bft) 95,74 %
27.12.2018 13:02 3,8 C 6,1 C 3,3 C 83 % 1023,9 hPa 0,0 l/m 2 min 0 min 186 W/m 9,7 km/h (2 Bft) 95,74 %
27.12.2018 13:04 3,9 C 6,1 C 3,3 C 83 % 1023,8 hPa 0,0 l/m 2 min 0 min 219 W/m 6,4 km/h (2 Bft) 95,74 %
27.12.2018 13:06 3,9 C 6,7 C 3,9 C 83 % 1023,8 hPa 0,0 l/m 2 min 0 min 250 W/m 12,9 km/h (3 Bft) 95,65 %
27.12.2018 13:08 3,9 C 7,2 C 3,9 C 83 % 1023,8 hPa 0,0 l/m 2 min 0 min 258 W/m 9,7 km/h (2 Bft) 95,74 %
27.12.2018 13:10 4,0 C 7,2 C 3,9 C 83 % 1023,8 hPa 0,0 l/m 2 min 0 min 223 W/m 6,4 km/h (2 Bft) 95,74 %
27.12.2018 13:12 4,1 C 7,8 C 3,9 C 83 % 1023,8 hPa 0,0 l/m 2 min 0 min 240 W/m 6,4 km/h (2 Bft) 89,36 %
27.12.2018 13:14 4,1 C 6,7 C 3,9 C 83 % 1023,8 hPa 0,0 l/m 2 min 0 min 157 W/m 9,7 km/h (2 Bft) 95,74 %
27.12.2018 13:16 4,2 C 6,1 C 3,9 C 83 % 1023,8 hPa 0,0 l/m 0 min 0 min 133 W/m 3,2 km/h (1 Bft) 95,74 %
27.12.2018 13:18 4,2 C 5,6 C 3,3 C 82 % 1024,0 hPa 0,0 l/m 0 min 0 min 136 W/m 16,1 km/h (3 Bft) 97,83 %
27.12.2018 13:20 4,2 C 5,0 C 3,3 C 82 % 1023,9 hPa 0,0 l/m 0 min 0 min 122 W/m 12,9 km/h (3 Bft) 100,00 %
27.12.2018 13:22 4,2 C 4,4 C 3,3 C 82 % 1023,9 hPa 0,0 l/m 0 min 0 min 113 W/m 9,7 km/h (2 Bft) 97,87 %
27.12.2018 13:24 4,2 C 4,4 C 3,3 C 81 % 1024,0 hPa 0,0 l/m 0 min 0 min 111 W/m 9,7 km/h (2 Bft) 100,00 %
27.12.2018 13:26 4,2 C 4,4 C 3,3 C 81 % 1024,0 hPa 0,0 l/m 0 min 0 min 110 W/m 9,7 km/h (2 Bft) 97,87 %
27.12.2018 13:28 4,2 C 4,4 C 3,3 C 81 % 1024,0 hPa 0,0 l/m 0 min 0 min 105 W/m 9,7 km/h (2 Bft) 100,00 %
27.12.2018 13:30 4,2 C 4,4 C 3,3 C 81 % 1024,1 hPa 0,0 l/m 0 min 0 min 99 W/m 9,7 km/h (2 Bft) 97,83 %
27.12.2018 13:32 4,2 C 4,4 C 3,3 C 81 % 1024,0 hPa 0,0 l/m 0 min 0 min 94 W/m 6,4 km/h (2 Bft) 100,00 %
27.12.2018 13:34 4,2 C 4,4 C 3,3 C 81 % 1024,1 hPa 0,0 l/m 0 min 0 min 91 W/m 0,0 km/h (0 Bft) 100,00 %
27.12.2018 13:36 4,2 C 4,4 C 3,3 C 81 % 1024,0 hPa 0,0 l/m 0 min 0 min 90 W/m 6,4 km/h (2 Bft) 100,00 %
27.12.2018 13:38 4,2 C 4,4 C 3,3 C 81 % 1024,1 hPa 0,0 l/m 0 min 0 min 91 W/m 6,4 km/h (2 Bft) 100,00 %
27.12.2018 13:40 4,2 C 4,4 C 3,3 C 81 % 1024,0 hPa 0,0 l/m 0 min 0 min 90 W/m 9,7 km/h (2 Bft) 100,00 %
27.12.2018 13:42 4,2 C 4,4 C 3,3 C 81 % 1024,1 hPa 0,0 l/m 0 min 0 min 90 W/m 6,4 km/h (2 Bft) 100,00 %
27.12.2018 13:44 4,2 C 4,4 C 3,3 C 81 % 1024,1 hPa 0,0 l/m 0 min 0 min 91 W/m 6,4 km/h (2 Bft) 100,00 %
27.12.2018 13:46 4,2 C 4,4 C 3,3 C 81 % 1024,1 hPa 0,0 l/m 0 min 0 min 91 W/m 3,2 km/h (1 Bft) 100,00 %
27.12.2018 13:48 4,2 C 4,4 C 3,3 C 81 % 1024,1 hPa 0,0 l/m 0 min 0 min 90 W/m 3,2 km/h (1 Bft) 100,00 %
27.12.2018 13:50 4,2 C 4,4 C 3,3 C 81 % 1024,1 hPa 0,0 l/m 0 min 0 min 87 W/m 6,4 km/h (2 Bft) 100,00 %
27.12.2018 13:52 4,2 C 4,4 C 3,3 C 81 % 1024,0 hPa 0,0 l/m 0 min 0 min 83 W/m 0,0 km/h (0 Bft) 100,00 %
27.12.2018 13:54 4,2 C 4,4 C 3,3 C 81 % 1024,0 hPa 0,0 l/m 0 min 0 min 79 W/m 6,4 km/h (2 Bft) 100,00 %
27.12.2018 13:56 4,2 C 3,9 C 3,3 C 81 % 1024,1 hPa 0,0 l/m 0 min 0 min 77 W/m 6,4 km/h (2 Bft) 100,00 %
27.12.2018 13:58 4,2 C 3,9 C 3,3 C 81 % 1024,0 hPa 0,0 l/m 0 min 0 min 76 W/m 6,4 km/h (2 Bft) 100,00 %
27.12.2018 14:00 4,2 C 3,9 C 3,3 C 81 % 1024,1 hPa 0,0 l/m 0 min 0 min 77 W/m 9,7 km/h (2 Bft) 95,74 %
27.12.2018 14:02 4,2 C 3,9 C 3,3 C 81 % 1024,1 hPa 0,0 l/m 0 min 0 min 79 W/m 6,4 km/h (2 Bft) 95,74 %
27.12.2018 14:04 4,2 C 4,4 C 3,3 C 81 % 1024,1 hPa 0,0 l/m 0 min 0 min 81 W/m 6,4 km/h (2 Bft) 100,00 %
27.12.2018 14:06 4,2 C 4,4 C 3,3 C 81 % 1024,1 hPa 0,0 l/m 0 min 0 min 83 W/m 6,4 km/h (2 Bft) 97,83 %
27.12.2018 14:08 4,2 C 4,4 C 3,3 C 81 % 1024,1 hPa 0,0 l/m 0 min 0 min 84 W/m 3,2 km/h (1 Bft) 97,87 %
27.12.2018 14:10 4,2 C 4,4 C 3,3 C 81 % 1024,1 hPa 0,0 l/m 0 min 0 min 86 W/m 3,2 km/h (1 Bft) 97,87 %
27.12.2018 14:12 4,2 C 4,4 C 3,3 C 81 % 1024,2 hPa 0,0 l/m 0 min 0 min 88 W/m 0,0 km/h (0 Bft) 100,00 %
27.12.2018 14:14 4,2 C 4,4 C 3,3 C 81 % 1024,1 hPa 0,0 l/m 0 min 0 min 88 W/m 0,0 km/h (0 Bft) 100,00 %
27.12.2018 14:16 4,3 C 4,4 C 3,3 C 81 % 1024,1 hPa 0,0 l/m 0 min 0 min 88 W/m 0,0 km/h (0 Bft) 95,65 %
27.12.2018 14:18 4,3 C 4,4 C 3,9 C 81 % 1024,1 hPa 0,0 l/m 0 min 0 min 86 W/m 3,2 km/h (1 Bft) 97,87 %
27.12.2018 14:20 4,3 C 4,4 C 3,9 C 81 % 1024,0 hPa 0,0 l/m 0 min 0 min 86 W/m 3,2 km/h (1 Bft) 97,87 %
27.12.2018 14:22 4,3 C 4,4 C 3,9 C 81 % 1024,0 hPa 0,0 l/m 0 min 0 min 84 W/m 0,0 km/h (0 Bft) 97,87 %
27.12.2018 14:24 4,3 C 4,4 C 3,9 C 81 % 1024,1 hPa 0,0 l/m 0 min 0 min 82 W/m 0,0 km/h (0 Bft) 95,74 %
27.12.2018 14:26 4,3 C 4,4 C 3,9 C 81 % 1024,1 hPa 0,0 l/m 0 min 0 min 78 W/m 0,0 km/h (0 Bft) 97,87 %
27.12.2018 14:28 4,3 C 4,4 C 3,9 C 81 % 1024,1 hPa 0,0 l/m 0 min 0 min 77 W/m 0,0 km/h (0 Bft) 97,83 %
27.12.2018 14:30 4,3 C 4,4 C 3,9 C 81 % 1024,1 hPa 0,0 l/m 0 min 0 min 76 W/m 0,0 km/h (0 Bft) 93,62 %
27.12.2018 14:32 4,3 C 4,4 C 3,3 C 81 % 1024,1 hPa 0,0 l/m 0 min 0 min 74 W/m 0,0 km/h (0 Bft) 97,87 %
27.12.2018 14:34 4,3 C 4,4 C 3,9 C 81 % 1024,1 hPa 0,0 l/m 0 min 0 min 71 W/m 0,0 km/h (0 Bft) 95,74 %
27.12.2018 14:36 4,3 C 4,4 C 3,3 C 81 % 1024,0 hPa 0,0 l/m 0 min 0 min 68 W/m 0,0 km/h (0 Bft) 95,74 %
27.12.2018 14:38 4,3 C 4,4 C 3,3 C 81 % 1024,0 hPa 0,0 l/m 0 min 0 min 65 W/m 0,0 km/h (0 Bft) 97,87 %
27.12.2018 14:40 4,4 C 4,4 C 3,3 C 81 % 1024,0 hPa 0,0 l/m 0 min 0 min 62 W/m 0,0 km/h (0 Bft) 97,83 %
27.12.2018 14:42 4,4 C 4,4 C 3,3 C 81 % 1023,9 hPa 0,0 l/m 0 min 0 min 61 W/m 0,0 km/h (0 Bft) 97,87 %
27.12.2018 14:44 4,4 C 4,4 C 3,3 C 81 % 1023,9 hPa 0,0 l/m 0 min 0 min 60 W/m 6,4 km/h (2 Bft) 97,87 %
27.12.2018 14:46 4,4 C 4,4 C 3,3 C 81 % 1023,9 hPa 0,0 l/m 0 min 0 min 60 W/m 6,4 km/h (2 Bft) 97,87 %
27.12.2018 14:48 4,4 C 4,4 C 3,3 C 81 % 1023,9 hPa 0,0 l/m 0 min 0 min 60 W/m 3,2 km/h (1 Bft) 100,00 %
27.12.2018 14:50 4,4 C 4,4 C 3,3 C 81 % 1024,0 hPa 0,0 l/m 0 min 0 min 58 W/m 3,2 km/h (1 Bft) 97,87 %
27.12.2018 14:52 4,4 C 4,4 C 3,3 C 81 % 1024,0 hPa 0,0 l/m 0 min 0 min 57 W/m 0,0 km/h (0 Bft) 97,83 %
27.12.2018 14:54 4,4 C 4,4 C 3,3 C 81 % 1023,9 hPa 0,0 l/m 0 min 0 min 56 W/m 9,7 km/h (2 Bft) 96,00 %
27.12.2018 14:56 4,4 C 4,4 C 3,3 C 82 % 1023,9 hPa 0,0 l/m 0 min 0 min 56 W/m 6,4 km/h (2 Bft) 97,87 %
27.12.2018 14:58 4,4 C 4,4 C 3,3 C 82 % 1023,9 hPa 0,0 l/m 0 min 0 min 56 W/m 9,7 km/h (2 Bft) 97,87 %
27.12.2018 15:00 4,4 C 4,4 C 3,3 C 82 % 1024,0 hPa 0,0 l/m 0 min 0 min 56 W/m 6,4 km/h (2 Bft) 97,87 %
27.12.2018 15:02 4,4 C 4,4 C 3,3 C 82 % 1024,0 hPa 0,0 l/m 0 min 0 min 58 W/m 9,7 km/h (2 Bft) 97,83 %
27.12.2018 15:04 4,4 C 4,4 C 3,3 C 81 % 1023,9 hPa 0,0 l/m 0 min 0 min 58 W/m 6,4 km/h (2 Bft) 95,74 %
27.12.2018 15:06 4,4 C 4,4 C 3,3 C 81 % 1023,9 hPa 0,0 l/m 0 min 0 min 57 W/m 9,7 km/h (2 Bft) 97,87 %
27.12.2018 15:08 4,4 C 4,4 C 3,3 C 81 % 1023,9 hPa 0,0 l/m 0 min 0 min 56 W/m 9,7 km/h (2 Bft) 95,74 %
27.12.2018 15:10 4,4 C 4,4 C 3,3 C 82 % 1023,9 hPa 0,0 l/m 0 min 0 min 54 W/m 3,2 km/h (1 Bft) 97,87 %
27.12.2018 15:12 4,4 C 4,4 C 3,3 C 82 % 1023,8 hPa 0,0 l/m 0 min 0 min 52 W/m 6,4 km/h (2 Bft) 97,87 %
27.12.2018 15:14 4,4 C 3,9 C 3,3 C 82 % 1023,9 hPa 0,0 l/m 0 min 0 min 50 W/m 9,7 km/h (2 Bft) 95,65 %
27.12.2018 15:16 4,4 C 3,9 C 3,3 C 82 % 1023,9 hPa 0,0 l/m 0 min 0 min 48 W/m 3,2 km/h (1 Bft) 97,87 %
27.12.2018 15:18 4,4 C 3,9 C 3,3 C 82 % 1023,9 hPa 0,0 l/m 0 min 0 min 47 W/m 9,7 km/h (2 Bft) 97,87 %
27.12.2018 15:20 4,4 C 3,9 C 3,3 C 82 % 1023,9 hPa 0,0 l/m 0 min 0 min 47 W/m 3,2 km/h (1 Bft) 97,87 %
27.12.2018 15:22 4,4 C 3,9 C 3,3 C 82 % 1023,9 hPa 0,0 l/m 0 min 0 min 46 W/m 3,2 km/h (1 Bft) 95,74 %
27.12.2018 15:24 4,4 C 3,9 C 3,3 C 82 % 1024,0 hPa 0,0 l/m 0 min 0 min 45 W/m 12,9 km/h (3 Bft) 97,87 %
27.12.2018 15:26 4,4 C 3,9 C 3,3 C 82 % 1023,9 hPa 0,0 l/m 0 min 0 min 44 W/m 6,4 km/h (2 Bft) 95,65 %
27.12.2018 15:28 4,4 C 3,9 C 3,3 C 82 % 1023,9 hPa 0,0 l/m 0 min 0 min 42 W/m 9,7 km/h (2 Bft) 95,74 %
27.12.2018 15:30 4,4 C 3,9 C 3,3 C 82 % 1024,0 hPa 0,0 l/m 0 min 0 min 41 W/m 6,4 km/h (2 Bft) 95,74 %
27.12.2018 15:32 4,4 C 3,9 C 3,3 C 82 % 1024,0 hPa 0,0 l/m 0 min 0 min 39 W/m 9,7 km/h (2 Bft) 93,62 %
27.12.2018 15:34 4,4 C 3,9 C 3,3 C 82 % 1024,0 hPa 0,0 l/m 0 min 0 min 39 W/m 6,4 km/h (2 Bft) 93,62 %
27.12.2018 15:36 4,4 C 3,9 C 3,3 C 82 % 1024,0 hPa 0,0 l/m 0 min 0 min 37 W/m 3,2 km/h (1 Bft) 95,74 %
27.12.2018 15:38 4,4 C 3,9 C 3,3 C 82 % 1024,1 hPa 0,0 l/m 0 min 0 min 36 W/m 0,0 km/h (0 Bft) 95,65 %
27.12.2018 15:40 4,3 C 3,9 C 3,3 C 82 % 1024,1 hPa 0,0 l/m 0 min 0 min 35 W/m 3,2 km/h (1 Bft) 93,62 %
27.12.2018 15:42 4,3 C 3,9 C 3,3 C 82 % 1024,1 hPa 0,0 l/m 0 min 0 min 34 W/m 0,0 km/h (0 Bft) 95,74 %
27.12.2018 15:44 4,3 C 3,9 C 3,3 C 82 % 1024,2 hPa 0,0 l/m 0 min 0 min 33 W/m 0,0 km/h (0 Bft) 95,74 %
27.12.2018 15:46 4,3 C 3,9 C 2,8 C 82 % 1024,1 hPa 0,0 l/m 0 min 0 min 32 W/m 0,0 km/h (0 Bft) 95,74 %
27.12.2018 15:48 4,3 C 3,9 C 2,8 C 82 % 1024,1 hPa 0,0 l/m 0 min 0 min 30 W/m 0,0 km/h (0 Bft) 97,83 %
27.12.2018 15:50 4,3 C 3,9 C 2,8 C 82 % 1024,1 hPa 0,0 l/m 0 min 0 min 29 W/m 0,0 km/h (0 Bft) 95,74 %
27.12.2018 15:52 4,3 C 3,9 C 2,8 C 82 % 1024,1 hPa 0,0 l/m 0 min 0 min 26 W/m 0,0 km/h (0 Bft) 95,74 %
27.12.2018 15:54 4,3 C 3,9 C 2,8 C 82 % 1024,0 hPa 0,0 l/m 0 min 0 min 25 W/m 0,0 km/h (0 Bft) 95,74 %
27.12.2018 15:56 4,3 C 3,9 C 2,8 C 82 % 1024,0 hPa 0,0 l/m 0 min 0 min 24 W/m 0,0 km/h (0 Bft) 95,92 %
27.12.2018 15:58 4,2 C 3,9 C 2,8 C 82 % 1024,0 hPa 0,0 l/m 0 min 0 min 22 W/m 0,0 km/h (0 Bft) 95,74 %
27.12.2018 16:00 4,2 C 3,3 C 2,8 C 82 % 1024,0 hPa 0,0 l/m 0 min 0 min 21 W/m 0,0 km/h (0 Bft) 97,87 %
27.12.2018 16:02 4,2 C 3,3 C 2,8 C 82 % 1024,0 hPa 0,0 l/m 0 min 0 min 19 W/m 0,0 km/h (0 Bft) 95,74 %
27.12.2018 16:04 4,2 C 3,3 C 2,8 C 82 % 1024,0 hPa 0,0 l/m 0 min 0 min 18 W/m 0,0 km/h (0 Bft) 97,83 %
27.12.2018 16:06 4,2 C 3,3 C 2,2 C 82 % 1024,0 hPa 0,0 l/m 0 min 0 min 18 W/m 0,0 km/h (0 Bft) 97,87 %
27.12.2018 16:08 4,2 C 3,3 C 2,2 C 83 % 1024,0 hPa 0,0 l/m 0 min 0 min 16 W/m 0,0 km/h (0 Bft) 97,87 %
27.12.2018 16:10 4,2 C 3,3 C 2,2 C 83 % 1024,0 hPa 0,0 l/m 0 min 0 min 16 W/m 0,0 km/h (0 Bft) 97,87 %
27.12.2018 16:12 4,2 C 3,3 C 2,2 C 83 % 1024,0 hPa 0,0 l/m 0 min 0 min 14 W/m 0,0 km/h (0 Bft) 97,87 %
27.12.2018 16:14 4,2 C 3,3 C 2,2 C 83 % 1024,0 hPa 0,0 l/m 0 min 0 min 13 W/m 0,0 km/h (0 Bft) 95,74 %
27.12.2018 16:16 4,1 C 3,3 C 2,2 C 83 % 1024,0 hPa 0,0 l/m 0 min 0 min 12 W/m 0,0 km/h (0 Bft) 95,65 %
27.12.2018 16:18 4,1 C 3,3 C 2,2 C 83 % 1023,9 hPa 0,0 l/m 0 min 0 min 11 W/m 0,0 km/h (0 Bft) 97,87 %
27.12.2018 16:20 4,1 C 3,3 C 2,2 C 83 % 1023,9 hPa 0,0 l/m 0 min 0 min 10 W/m 0,0 km/h (0 Bft) 95,74 %
27.12.2018 16:22 4,1 C 3,3 C 1,7 C 83 % 1023,9 hPa 0,0 l/m 0 min 0 min 9 W/m 0,0 km/h (0 Bft) 95,74 %
27.12.2018 16:24 4,1 C 3,3 C 1,7 C 83 % 1023,8 hPa 0,0 l/m 0 min 0 min 7 W/m 0,0 km/h (0 Bft) 97,87 %
27.12.2018 16:26 4,0 C 3,3 C 1,7 C 83 % 1023,9 hPa 0,0 l/m 0 min 0 min 6 W/m 0,0 km/h (0 Bft) 97,87 %
27.12.2018 16:28 4,0 C 2,8 C 1,7 C 83 % 1024,0 hPa 0,0 l/m 0 min 0 min 5 W/m 0,0 km/h (0 Bft) 97,83 %
27.12.2018 16:30 4,0 C 2,8 C 1,7 C 83 % 1024,0 hPa 0,0 l/m 0 min 0 min 5 W/m 0,0 km/h (0 Bft) 100,00 %
27.12.2018 16:32 3,9 C 2,8 C 1,7 C 83 % 1024,0 hPa 0,0 l/m 0 min 0 min 1 W/m 0,0 km/h (0 Bft) 100,00 %
27.12.2018 16:34 3,9 C 2,2 C 1,1 C 83 % 1024,1 hPa 0,0 l/m 0 min 0 min 0 W/m 0,0 km/h (0 Bft) 100,00 %
27.12.2018 16:36 3,9 C 2,2 C 1,1 C 83 % 1024,1 hPa 0,0 l/m 0 min 0 min 0 W/m 0,0 km/h (0 Bft) 100,00 %
27.12.2018 16:38 3,8 C 2,2 C 1,1 C 83 % 1024,0 hPa 0,0 l/m 0 min 0 min 0 W/m 0,0 km/h (0 Bft) 97,87 %
27.12.2018 16:40 3,8 C 1,7 C 1,1 C 83 % 1024,0 hPa 0,0 l/m 0 min 0 min 0 W/m 0,0 km/h (0 Bft) 100,00 %
27.12.2018 16:42 3,8 C 1,7 C 1,1 C 83 % 1024,0 hPa 0,0 l/m 0 min 0 min 0 W/m 0,0 km/h (0 Bft) 100,00 %
27.12.2018 16:44 3,7 C 1,7 C 1,1 C 83 % 1023,9 hPa 0,0 l/m 0 min 0 min 0 W/m 0,0 km/h (0 Bft) 100,00 %
27.12.2018 16:46 3,7 C 1,1 C 1,1 C 83 % 1023,9 hPa 0,0 l/m 0 min 0 min 0 W/m 0,0 km/h (0 Bft) 95,74 %
27.12.2018 16:48 3,6 C 1,1 C 0,6 C 83 % 1023,9 hPa 0,0 l/m 0 min 0 min 0 W/m 0,0 km/h (0 Bft) 100,00 %
27.12.2018 16:50 3,6 C 1,1 C 0,6 C 82 % 1024,0 hPa 0,0 l/m 0 min 0 min 0 W/m 0,0 km/h (0 Bft) 100,00 %
27.12.2018 16:52 3,5 C 1,1 C 0,6 C 82 % 1024,0 hPa 0,0 l/m 0 min 0 min 0 W/m 0,0 km/h (0 Bft) 97,83 %
27.12.2018 16:54 3,4 C 1,1 C 0,6 C 82 % 1024,0 hPa 0,0 l/m 0 min 0 min 0 W/m 0,0 km/h (0 Bft) 93,62 %
27.12.2018 16:56 3,4 C 1,1 C 0,6 C 83 % 1023,9 hPa 0,0 l/m 0 min 0 min 0 W/m 0,0 km/h (0 Bft) 97,87 %
27.12.2018 16:58 3,3 C 1,1 C 0,6 C 83 % 1023,9 hPa 0,0 l/m 0 min 0 min 0 W/m 0,0 km/h (0 Bft) 95,74 %
27.12.2018 17:00 3,2 C 1,1 C 0,6 C 83 % 1023,9 hPa 0,0 l/m 0 min 0 min 0 W/m 0,0 km/h (0 Bft) 95,74 %
27.12.2018 17:02 3,2 C 1,1 C 0,6 C 83 % 1023,9 hPa 0,0 l/m 0 min 0 min 0 W/m 0,0 km/h (0 Bft) 97,83 %
27.12.2018 17:04 3,2 C 1,7 C 0,6 C 83 % 1024,0 hPa 0,0 l/m 0 min 0 min 0 W/m 0,0 km/h (0 Bft) 97,87 %
27.12.2018 17:06 3,1 C 1,7 C 0,6 C 84 % 1023,9 hPa 0,0 l/m 0 min 0 min 0 W/m 0,0 km/h (0 Bft) 97,87 %
27.12.2018 17:08 3,1 C 1,7 C 0,6 C 84 % 1024,0 hPa 0,0 l/m 0 min 0 min 0 W/m 0,0 km/h (0 Bft) 97,87 %
27.12.2018 17:10 3,1 C 1,7 C 0,6 C 84 % 1024,0 hPa 0,0 l/m 0 min 0 min 0 W/m 0,0 km/h (0 Bft) 97,87 %
27.12.2018 17:12 3,0 C 1,7 C 0,6 C 84 % 1024,0 hPa 0,0 l/m 0 min 0 min 0 W/m 0,0 km/h (0 Bft) 97,87 %
27.12.2018 17:14 2,9 C 1,7 C 0,6 C 84 % 1024,0 hPa 0,0 l/m 0 min 0 min 0 W/m 0,0 km/h (0 Bft) 97,83 %
27.12.2018 17:16 2,9 C 1,1 C 0,6 C 84 % 1024,0 hPa 0,0 l/m 0 min 0 min 0 W/m 0,0 km/h (0 Bft) 91,49 %
27.12.2018 17:18 2,9 C 1,1 C 0,6 C 84 % 1024,1 hPa 0,0 l/m 0 min 0 min 0 W/m 0,0 km/h (0 Bft) 95,74 %
27.12.2018 17:20 2,8 C 1,1 C 0,6 C 84 % 1024,0 hPa 0,0 l/m 0 min 0 min 0 W/m 0,0 km/h (0 Bft) 97,87 %
27.12.2018 17:22 2,8 C 0,6 C 0,0 C 84 % 1024,0 hPa 0,0 l/m 0 min 0 min 0 W/m 0,0 km/h (0 Bft) 97,87 %
27.12.2018 17:24 2,7 C 0,6 C 0,0 C 84 % 1024,1 hPa 0,0 l/m 0 min 0 min 0 W/m 0,0 km/h (0 Bft) 95,74 %
27.12.2018 17:26 2,7 C 0,6 C 0,0 C 84 % 1024,1 hPa 0,0 l/m 0 min 0 min 0 W/m 0,0 km/h (0 Bft) 97,83 %
27.12.2018 17:28 2,6 C 0,6 C 0,0 C 84 % 1024,1 hPa 0,0 l/m 0 min 0 min 0 W/m 0,0 km/h (0 Bft) 97,87 %
27.12.2018 17:30 2,6 C 0,6 C 0,0 C 84 % 1024,1 hPa 0,0 l/m 0 min 0 min 0 W/m 0,0 km/h (0 Bft) 95,74 %
27.12.2018 17:32 2,5 C 0,6 C 0,0 C 84 % 1024,1 hPa 0,0 l/m 0 min 0 min 0 W/m 0,0 km/h (0 Bft) 100,00 %
27.12.2018 17:34 2,4 C 0,6 C 0,0 C 84 % 1024,1 hPa 0,0 l/m 0 min 0 min 0 W/m 0,0 km/h (0 Bft) 100,00 %
27.12.2018 17:36 2,4 C 0,6 C 0,0 C 85 % 1024,1 hPa 0,0 l/m 0 min 0 min 0 W/m 0,0 km/h (0 Bft) 97,87 %
27.12.2018 17:38 2,4 C 0,6 C 0,0 C 85 % 1024,1 hPa 0,0 l/m 0 min 0 min 0 W/m 0,0 km/h (0 Bft) 100,00 %
27.12.2018 17:40 2,3 C 1,1 C 0,0 C 85 % 1024,1 hPa 0,0 l/m 0 min 0 min 0 W/m 0,0 km/h (0 Bft) 100,00 %
27.12.2018 17:42 2,3 C 1,1 C 0,0 C 85 % 1024,1 hPa 0,0 l/m 0 min 0 min 0 W/m 0,0 km/h (0 Bft) 100,00 %
27.12.2018 17:44 2,3 C 1,1 C 0,0 C 85 % 1024,0 hPa 0,0 l/m 0 min 0 min 0 W/m 0,0 km/h (0 Bft) 100,00 %
27.12.2018 17:46 2,3 C 1,1 C 0,0 C 85 % 1024,0 hPa 0,0 l/m 0 min 0 min 0 W/m 0,0 km/h (0 Bft) 100,00 %
27.12.2018 17:48 2,2 C 1,1 C 0,0 C 86 % 1024,0 hPa 0,0 l/m 0 min 0 min 0 W/m 0,0 km/h (0 Bft) 100,00 %
27.12.2018 17:50 2,2 C 1,1 C 0,0 C 86 % 1024,0 hPa 0,0 l/m 0 min 0 min 0 W/m 0,0 km/h (0 Bft) 100,00 %
27.12.2018 17:52 2,2 C 1,1 C 0,0 C 86 % 1024,0 hPa 0,0 l/m 0 min 0 min 0 W/m 0,0 km/h (0 Bft) 100,00 %
27.12.2018 17:54 2,2 C 0,6 C 0,0 C 86 % 1024,0 hPa 0,0 l/m 0 min 0 min 0 W/m 0,0 km/h (0 Bft) 100,00 %
27.12.2018 17:56 2,1 C 0,6 C 0,0 C 86 % 1024,0 hPa 0,0 l/m 0 min 0 min 0 W/m 0,0 km/h (0 Bft) 100,00 %
27.12.2018 17:58 2,1 C 0,6 C 0,0 C 86 % 1024,0 hPa 0,0 l/m 0 min 0 min 0 W/m 0,0 km/h (0 Bft) 100,00 %
27.12.2018 18:00 2,1 C 1,1 C 0,0 C 86 % 1023,9 hPa 0,0 l/m 0 min 0 min 0 W/m 0,0 km/h (0 Bft) 100,00 %
27.12.2018 18:02 2,1 C 1,1 C 0,0 C 86 % 1023,9 hPa 0,0 l/m 0 min 0 min 0 W/m 0,0 km/h (0 Bft) 97,87 %
27.12.2018 18:04 2,0 C 1,1 C 0,0 C 86 % 1023,9 hPa 0,0 l/m 0 min 0 min 0 W/m 0,0 km/h (0 Bft) 97,87 %
27.12.2018 18:08 1,9 C 0,6 C 0,0 C 86 % 1023,9 hPa 0,0 l/m 0 min 0 min 0 W/m 0,0 km/h (0 Bft) 96,81 %
27.12.2018 18:10 1,9 C 1,1 C 0,0 C 86 % 1023,8 hPa 0,0 l/m 0 min 0 min 0 W/m 0,0 km/h (0 Bft) 97,87 %
27.12.2018 18:12 1,9 C 1,1 C 0,0 C 86 % 1023,9 hPa 0,0 l/m 0 min 0 min 0 W/m 0,0 km/h (0 Bft) 95,65 %
27.12.2018 18:14 1,9 C 1,1 C 0,0 C 86 % 1023,8 hPa 0,0 l/m 0 min 0 min 0 W/m 0,0 km/h (0 Bft) 97,87 %
27.12.2018 18:16 1,9 C 1,7 C 0,0 C 86 % 1023,8 hPa 0,0 l/m 0 min 0 min 0 W/m 0,0 km/h (0 Bft) 95,74 %
27.12.2018 18:18 1,9 C 1,7 C 0,0 C 87 % 1023,7 hPa 0,0 l/m 0 min 0 min 0 W/m 0,0 km/h (0 Bft) 97,87 %
27.12.2018 18:20 1,9 C 1,7 C 0,0 C 87 % 1023,7 hPa 0,0 l/m 0 min 0 min 0 W/m 0,0 km/h (0 Bft) 97,87 %
27.12.2018 18:22 1,9 C 1,7 C 0,0 C 87 % 1023,8 hPa 0,0 l/m 0 min 0 min 0 W/m 0,0 km/h (0 Bft) 97,87 %
27.12.2018 18:24 1,8 C 1,7 C 0,0 C 87 % 1023,8 hPa 0,0 l/m 0 min 0 min 0 W/m 0,0 km/h (0 Bft) 93,48 %
27.12.2018 18:26 1,8 C 1,1 C 0,0 C 87 % 1023,8 hPa 0,0 l/m 0 min 0 min 0 W/m 0,0 km/h (0 Bft) 97,87 %
27.12.2018 18:28 1,8 C 1,1 C 0,0 C 87 % 1023,7 hPa 0,0 l/m 0 min 0 min 0 W/m 0,0 km/h (0 Bft) 97,87 %
27.12.2018 18:30 1,8 C 1,1 C 0,0 C 87 % 1023,7 hPa 0,0 l/m 0 min 0 min 0 W/m 0,0 km/h (0 Bft) 97,87 %
27.12.2018 18:32 1,8 C 1,1 C 0,0 C 87 % 1023,7 hPa 0,0 l/m 0 min 0 min 0 W/m 0,0 km/h (0 Bft) 95,74 %
27.12.2018 18:34 1,8 C 1,1 C 0,0 C 88 % 1023,7 hPa 0,0 l/m 0 min 0 min 0 W/m 0,0 km/h (0 Bft) 97,87 %
27.12.2018 18:36 1,8 C 0,6 C 0,0 C 88 % 1023,6 hPa 0,0 l/m 0 min 0 min 0 W/m 0,0 km/h (0 Bft) 97,83 %
27.12.2018 18:38 1,8 C 0,6 C 0,0 C 88 % 1023,7 hPa 0,0 l/m 0 min 0 min 0 W/m 0,0 km/h (0 Bft) 95,74 %
27.12.2018 18:40 1,8 C 1,1 C 0,0 C 88 % 1023,8 hPa 0,0 l/m 0 min 0 min 0 W/m 0,0 km/h (0 Bft) 95,74 %
27.12.2018 18:42 1,8 C 1,1 C 0,0 C 88 % 1023,7 hPa 0,0 l/m 0 min 0 min 0 W/m 0,0 km/h (0 Bft) 93,62 %
27.12.2018 18:44 1,8 C 1,1 C 0,0 C 88 % 1023,6 hPa 0,0 l/m 0 min 0 min 0 W/m 0,0 km/h (0 Bft) 95,74 %
27.12.2018 18:46 1,7 C 1,1 C 0,0 C 88 % 1023,7 hPa 0,0 l/m 0 min 0 min 0 W/m 0,0 km/h (0 Bft) 95,74 %
27.12.2018 18:48 1,7 C 1,1 C 0,0 C 88 % 1023,7 hPa 0,0 l/m 0 min 0 min 0 W/m 0,0 km/h (0 Bft) 95,65 %
27.12.2018 18:50 1,7 C 0,6 C 0,0 C 88 % 1023,7 hPa 0,0 l/m 0 min 0 min 0 W/m 0,0 km/h (0 Bft) 97,87 %
27.12.2018 18:52 1,7 C 0,6 C 0,0 C 88 % 1023,7 hPa 0,0 l/m 0 min 0 min 0 W/m 0,0 km/h (0 Bft) 97,87 %
27.12.2018 18:54 1,7 C 0,6 C 0,0 C 88 % 1023,7 hPa 0,0 l/m 0 min 0 min 0 W/m 0,0 km/h (0 Bft) 97,87 %
27.12.2018 18:56 1,7 C 0,6 C 0,0 C 88 % 1023,7 hPa 0,0 l/m 0 min 0 min 0 W/m 0,0 km/h (0 Bft) 97,87 %
27.12.2018 18:58 1,7 C 0,6 C 0,0 C 88 % 1023,7 hPa 0,0 l/m 0 min 0 min 0 W/m 0,0 km/h (0 Bft) 95,74 %
27.12.2018 19:00 1,7 C 0,6 C 0,0 C 88 % 1023,7 hPa 0,0 l/m 0 min 0 min 0 W/m 0,0 km/h (0 Bft) 95,65 %
27.12.2018 19:02 1,6 C 0,6 C 0,0 C 88 % 1023,7 hPa 0,0 l/m 0 min 0 min 0 W/m 0,0 km/h (0 Bft) 91,49 %
27.12.2018 19:04 1,6 C 0,6 C 0,0 C 88 % 1023,7 hPa 0,0 l/m 0 min 0 min 0 W/m 0,0 km/h (0 Bft) 97,87 %
27.12.2018 19:06 1,6 C 1,1 C 0,0 C 89 % 1023,7 hPa 0,0 l/m 0 min 0 min 0 W/m 0,0 km/h (0 Bft) 95,74 %
27.12.2018 19:08 1,6 C 1,7 C 0,0 C 89 % 1023,8 hPa 0,0 l/m 0 min 0 min 0 W/m 0,0 km/h (0 Bft) 97,87 %
27.12.2018 19:10 1,6 C 1,7 C 0,0 C 89 % 1023,8 hPa 0,0 l/m 0 min 0 min 0 W/m 0,0 km/h (0 Bft) 97,83 %
27.12.2018 19:12 1,6 C 1,7 C 0,0 C 89 % 1023,8 hPa 0,0 l/m 0 min 0 min 0 W/m 0,0 km/h (0 Bft) 97,87 %
27.12.2018 19:14 1,6 C 1,7 C 0,0 C 89 % 1023,7 hPa 0,0 l/m 0 min 0 min 0 W/m 0,0 km/h (0 Bft) 95,74 %
27.12.2018 19:16 1,6 C 1,7 C 0,0 C 89 % 1023,7 hPa 0,0 l/m 0 min 0 min 0 W/m 0,0 km/h (0 Bft) 97,87 %
27.12.2018 19:18 1,6 C 1,7 C 0,0 C 89 % 1023,8 hPa 0,0 l/m 0 min 0 min 0 W/m 0,0 km/h (0 Bft) 97,87 %
27.12.2018 19:20 1,7 C 1,7 C 0,0 C 90 % 1023,8 hPa 0,0 l/m 0 min 0 min 0 W/m 0,0 km/h (0 Bft) 97,87 %
27.12.2018 19:22 1,7 C 1,7 C 0,0 C 90 % 1023,9 hPa 0,0 l/m 0 min 0 min 0 W/m 0,0 km/h (0 Bft) 97,83 %
27.12.2018 19:24 1,7 C 1,7 C 0,0 C 90 % 1023,9 hPa 0,0 l/m 0 min 0 min 0 W/m 0,0 km/h (0 Bft) 97,87 %
27.12.2018 19:26 1,7 C 2,2 C 0,0 C 90 % 1023,9 hPa 0,0 l/m 0 min 0 min 0 W/m 0,0 km/h (0 Bft) 95,74 %
27.12.2018 19:28 1,7 C 1,7 C 0,0 C 90 % 1023,9 hPa 0,0 l/m 0 min 0 min 0 W/m 0,0 km/h (0 Bft) 95,74 %
27.12.2018 19:30 1,7 C 1,7 C 0,0 C 90 % 1023,9 hPa 0,0 l/m 0 min 0 min 0 W/m 0,0 km/h (0 Bft) 95,74 %
27.12.2018 19:32 1,7 C 1,7 C 0,0 C 90 % 1023,9 hPa 0,0 l/m 0 min 0 min 0 W/m 0,0 km/h (0 Bft) 97,87 %
27.12.2018 19:34 1,7 C 1,7 C 0,0 C 90 % 1023,9 hPa 0,0 l/m 0 min 0 min 0 W/m 0,0 km/h (0 Bft) 95,65 %
27.12.2018 19:36 1,7 C 1,7 C 0,0 C 91 % 1023,9 hPa 0,0 l/m 0 min 0 min 0 W/m 0,0 km/h (0 Bft) 95,74 %
27.12.2018 19:38 1,7 C 1,7 C 0,0 C 91 % 1023,9 hPa 0,0 l/m 0 min 0 min 0 W/m 0,0 km/h (0 Bft) 97,87 %
27.12.2018 19:40 1,8 C 1,7 C 0,0 C 91 % 1023,9 hPa 0,0 l/m 0 min 0 min 0 W/m 0,0 km/h (0 Bft) 97,87 %
27.12.2018 19:42 1,8 C 1,7 C 0,6 C 91 % 1023,9 hPa 0,0 l/m 0 min 0 min 0 W/m 0,0 km/h (0 Bft) 97,87 %
27.12.2018 19:44 1,8 C 1,7 C 0,6 C 91 % 1023,9 hPa 0,0 l/m 0 min 0 min 0 W/m 0,0 km/h (0 Bft) 93,62 %
27.12.2018 19:46 1,8 C 1,7 C 0,6 C 91 % 1023,9 hPa 0,0 l/m 0 min 0 min 0 W/m 0,0 km/h (0 Bft) 86,96 %
27.12.2018 19:48 1,8 C 1,7 C 0,6 C 91 % 1023,9 hPa 0,0 l/m 0 min 0 min 0 W/m 0,0 km/h (0 Bft) 97,87 %
27.12.2018 19:50 1,8 C 1,7 C 0,6 C 91 % 1023,9 hPa 0,0 l/m 0 min 0 min 0 W/m 0,0 km/h (0 Bft) 97,87 %
27.12.2018 19:52 1,8 C 2,2 C 0,6 C 91 % 1023,9 hPa 0,0 l/m 0 min 0 min 0 W/m 0,0 km/h (0 Bft) 97,87 %
27.12.2018 19:54 1,8 C 2,2 C 0,6 C 91 % 1023,9 hPa 0,0 l/m 0 min 0 min 0 W/m 0,0 km/h (0 Bft) 97,87 %
27.12.2018 19:56 1,9 C 2,2 C 0,6 C 91 % 1023,9 hPa 0,0 l/m 0 min 0 min 0 W/m 0,0 km/h (0 Bft) 97,87 %
27.12.2018 19:58 1,9 C 2,2 C 0,6 C 91 % 1024,0 hPa 0,0 l/m 0 min 0 min 0 W/m 0,0 km/h (0 Bft) 95,65 %
27.12.2018 20:00 1,9 C 2,2 C 0,6 C 91 % 1024,0 hPa 0,0 l/m 0 min 0 min 0 W/m 0,0 km/h (0 Bft) 97,87 %
27.12.2018 20:02 1,9 C 2,2 C 0,6 C 91 % 1024,0 hPa 0,0 l/m 0 min 0 min 0 W/m 0,0 km/h (0 Bft) 95,74 %
27.12.2018 20:04 1,9 C 2,2 C 0,6 C 91 % 1024,1 hPa 0,0 l/m 0 min 0 min 0 W/m 0,0 km/h (0 Bft) 97,87 %
27.12.2018 20:06 1,9 C 2,2 C 0,6 C 92 % 1024,2 hPa 0,0 l/m 0 min 0 min 0 W/m 0,0 km/h (0 Bft) 97,87 %
27.12.2018 20:08 1,9 C 2,2 C 0,6 C 92 % 1024,1 hPa 0,0 l/m 0 min 0 min 0 W/m 0,0 km/h (0 Bft) 97,83 %
27.12.2018 20:10 1,9 C 1,7 C 0,6 C 92 % 1024,2 hPa 0,0 l/m 0 min 0 min 0 W/m 0,0 km/h (0 Bft) 95,74 %
27.12.2018 20:12 1,9 C 1,7 C 0,6 C 92 % 1024,2 hPa 0,0 l/m 0 min 0 min 0 W/m 0,0 km/h (0 Bft) 95,74 %
27.12.2018 20:14 1,9 C 1,7 C 0,6 C 92 % 1024,2 hPa 0,0 l/m 0 min 0 min 0 W/m 0,0 km/h (0 Bft) 95,74 %
27.12.2018 20:16 2,0 C 1,7 C 0,6 C 92 % 1024,1 hPa 0,0 l/m 0 min 0 min 0 W/m 0,0 km/h (0 Bft) 97,87 %
27.12.2018 20:18 2,0 C 1,7 C 0,6 C 92 % 1024,2 hPa 0,0 l/m 0 min 0 min 0 W/m 0,0 km/h (0 Bft) 97,87 %
27.12.2018 20:20 2,0 C 1,1 C 0,6 C 92 % 1024,2 hPa 0,0 l/m 0 min 0 min 0 W/m 0,0 km/h (0 Bft) 97,83 %
27.12.2018 20:22 2,0 C 1,1 C 0,6 C 92 % 1024,2 hPa 0,0 l/m 0 min 0 min 0 W/m 0,0 km/h (0 Bft) 100,00 %
27.12.2018 20:24 2,0 C 1,1 C 0,6 C 92 % 1024,2 hPa 0,0 l/m 0 min 0 min 0 W/m 0,0 km/h (0 Bft) 100,00 %
27.12.2018 20:26 2,0 C 1,1 C 0,6 C 92 % 1024,2 hPa 0,0 l/m 0 min 0 min 0 W/m 0,0 km/h (0 Bft) 100,00 %
27.12.2018 20:28 2,0 C 1,1 C 0,6 C 92 % 1024,2 hPa 0,0 l/m 0 min 0 min 0 W/m 0,0 km/h (0 Bft) 100,00 %
27.12.2018 20:30 1,9 C 1,1 C 0,6 C 92 % 1024,1 hPa 0,0 l/m 0 min 0 min 0 W/m 3,2 km/h (1 Bft) 97,87 %
27.12.2018 20:32 1,9 C 1,7 C 0,6 C 92 % 1024,0 hPa 0,0 l/m 0 min 0 min 0 W/m 6,4 km/h (2 Bft) 100,00 %
27.12.2018 20:34 1,9 C 1,1 C 0,6 C 92 % 1024,0 hPa 0,0 l/m 0 min 0 min 0 W/m 0,0 km/h (0 Bft) 100,00 %
27.12.2018 20:36 1,9 C 1,1 C 0,6 C 92 % 1023,9 hPa 0,0 l/m 0 min 0 min 0 W/m 0,0 km/h (0 Bft) 100,00 %
27.12.2018 20:38 1,9 C 1,1 C 0,6 C 92 % 1024,0 hPa 0,0 l/m 0 min 0 min 0 W/m 0,0 km/h (0 Bft) 100,00 %
27.12.2018 20:40 1,9 C 1,1 C 0,6 C 92 % 1023,9 hPa 0,0 l/m 0 min 0 min 0 W/m 0,0 km/h (0 Bft) 97,87 %
27.12.2018 20:42 1,9 C 1,1 C 0,6 C 92 % 1024,0 hPa 0,0 l/m 0 min 0 min 0 W/m 0,0 km/h (0 Bft) 100,00 %
27.12.2018 20:44 1,9 C 1,1 C 0,6 C 92 % 1024,1 hPa 0,0 l/m 0 min 0 min 0 W/m 0,0 km/h (0 Bft) 95,65 %
27.12.2018 20:46 1,9 C 1,1 C 0,6 C 92 % 1024,0 hPa 0,0 l/m 0 min 0 min 0 W/m 0,0 km/h (0 Bft) 95,74 %
27.12.2018 20:48 1,9 C 1,1 C 0,6 C 91 % 1024,1 hPa 0,0 l/m 0 min 0 min 0 W/m 0,0 km/h (0 Bft) 97,87 %
27.12.2018 20:50 1,9 C 1,1 C 0,6 C 91 % 1024,1 hPa 0,0 l/m 0 min 0 min 0 W/m 0,0 km/h (0 Bft) 95,74 %
27.12.2018 20:52 1,9 C 1,1 C 0,6 C 91 % 1024,1 hPa 0,0 l/m 0 min 0 min 0 W/m 0,0 km/h (0 Bft) 93,62 %
27.12.2018 20:54 1,9 C 1,1 C 0,6 C 91 % 1024,1 hPa 0,0 l/m 0 min 0 min 0 W/m 0,0 km/h (0 Bft) 95,74 %
27.12.2018 20:56 1,9 C 1,1 C 0,6 C 91 % 1024,1 hPa 0,0 l/m 0 min 0 min 0 W/m 0,0 km/h (0 Bft) 97,83 %
27.12.2018 20:58 1,9 C 1,1 C 0,6 C 91 % 1024,1 hPa 0,0 l/m 0 min 0 min 0 W/m 0,0 km/h (0 Bft) 97,87 %
27.12.2018 21:00 1,8 C 1,1 C 0,6 C 91 % 1024,1 hPa 0,0 l/m 0 min 0 min 0 W/m 0,0 km/h (0 Bft) 95,74 %
27.12.2018 21:02 1,9 C 1,1 C 0,6 C 91 % 1024,1 hPa 0,0 l/m 0 min 0 min 0 W/m 0,0 km/h (0 Bft) 95,74 %
27.12.2018 21:04 1,8 C 1,1 C 0,6 C 91 % 1024,2 hPa 0,0 l/m 0 min 0 min 0 W/m 0,0 km/h (0 Bft) 93,62 %
27.12.2018 21:06 1,8 C 1,1 C 0,6 C 91 % 1024,1 hPa 0,0 l/m 0 min 0 min 0 W/m 0,0 km/h (0 Bft) 78,26 %
27.12.2018 21:08 1,8 C 1,1 C 0,6 C 91 % 1024,1 hPa 0,0 l/m 0 min 0 min 0 W/m 0,0 km/h (0 Bft) 74,47 %
27.12.2018 21:10 1,8 C 1,7 C 0,6 C 91 % 1024,1 hPa 0,0 l/m 0 min 0 min 0 W/m 0,0 km/h (0 Bft) 74,47 %
27.12.2018 21:12 1,8 C 1,7 C 0,6 C 91 % 1024,1 hPa 0,0 l/m 0 min 0 min 0 W/m 0,0 km/h (0 Bft) 70,21 %
27.12.2018 21:14 1,8 C 1,7 C 0,6 C 91 % 1024,1 hPa 0,0 l/m 0 min 0 min 0 W/m 0,0 km/h (0 Bft) 74,47 %
27.12.2018 21:16 1,8 C 1,7 C 0,6 C 91 % 1024,1 hPa 0,0 l/m 0 min 0 min 0 W/m 0,0 km/h (0 Bft) 78,72 %
27.12.2018 21:18 1,8 C 1,1 C 0,6 C 91 % 1024,2 hPa 0,0 l/m 0 min 0 min 0 W/m 0,0 km/h (0 Bft) 76,09 %
27.12.2018 21:20 1,8 C 1,1 C 0,6 C 91 % 1024,1 hPa 0,0 l/m 0 min 0 min 0 W/m 0,0 km/h (0 Bft) 70,21 %
27.12.2018 21:22 1,8 C 1,1 C 0,6 C 91 % 1024,1 hPa 0,0 l/m 0 min 0 min 0 W/m 0,0 km/h (0 Bft) 72,34 %
27.12.2018 21:24 1,8 C 1,1 C 0,6 C 91 % 1024,1 hPa 0,0 l/m 0 min 0 min 0 W/m 0,0 km/h (0 Bft) 76,60 %
27.12.2018 21:26 1,8 C 1,7 C 0,6 C 91 % 1023,9 hPa 0,0 l/m 0 min 0 min 0 W/m 6,4 km/h (2 Bft) 74,47 %
27.12.2018 21:28 1,8 C 2,2 C 1,1 C 92 % 1023,9 hPa 0,0 l/m 0 min 0 min 0 W/m 0,0 km/h (0 Bft) 80,85 %
27.12.2018 21:30 1,8 C 2,2 C 1,1 C 92 % 1023,9 hPa 0,0 l/m 0 min 0 min 0 W/m 0,0 km/h (0 Bft) 71,74 %
27.12.2018 21:32 1,9 C 2,2 C 1,1 C 92 % 1023,7 hPa 0,0 l/m 0 min 0 min 0 W/m 0,0 km/h (0 Bft) 80,85 %
27.12.2018 21:34 1,9 C 2,2 C 1,1 C 92 % 1023,8 hPa 0,0 l/m 0 min 0 min 0 W/m 0,0 km/h (0 Bft) 80,85 %
27.12.2018 21:36 1,9 C 2,2 C 1,1 C 92 % 1023,9 hPa 0,0 l/m 0 min 0 min 0 W/m 0,0 km/h (0 Bft) 82,98 %
27.12.2018 21:38 1,9 C 2,2 C 1,1 C 92 % 1023,9 hPa 0,0 l/m 0 min 0 min 0 W/m 0,0 km/h (0 Bft) 74,47 %
27.12.2018 21:40 1,9 C 2,2 C 1,1 C 92 % 1023,9 hPa 0,0 l/m 0 min 0 min 0 W/m 0,0 km/h (0 Bft) 89,36 %
27.12.2018 21:42 2,0 C 2,2 C 1,1 C 92 % 1023,9 hPa 0,0 l/m 0 min 0 min 0 W/m 0,0 km/h (0 Bft) 91,30 %
27.12.2018 21:44 2,0 C 2,2 C 1,1 C 92 % 1023,9 hPa 0,0 l/m 0 min 0 min 0 W/m 0,0 km/h (0 Bft) 91,49 %
27.12.2018 21:46 2,0 C 2,2 C 1,1 C 92 % 1023,9 hPa 0,0 l/m 0 min 0 min 0 W/m 0,0 km/h (0 Bft) 93,62 %
27.12.2018 21:48 2,0 C 2,2 C 1,1 C 92 % 1023,9 hPa 0,0 l/m 0 min 0 min 0 W/m 0,0 km/h (0 Bft) 95,74 %
27.12.2018 21:50 2,1 C 1,7 C 1,1 C 92 % 1024,0 hPa 0,0 l/m 0 min 0 min 0 W/m 0,0 km/h (0 Bft) 95,74 %
27.12.2018 21:52 2,1 C 2,2 C 0,6 C 92 % 1023,9 hPa 0,0 l/m 0 min 0 min 0 W/m 0,0 km/h (0 Bft) 97,87 %
27.12.2018 21:54 2,1 C 2,2 C 1,1 C 92 % 1023,9 hPa 0,0 l/m 0 min 0 min 0 W/m 0,0 km/h (0 Bft) 97,83 %
27.12.2018 21:56 2,1 C 2,2 C 1,1 C 92 % 1023,9 hPa 0,0 l/m 0 min 0 min 0 W/m 0,0 km/h (0 Bft) 100,00 %
27.12.2018 21:58 2,1 C 2,2 C 1,1 C 92 % 1023,9 hPa 0,0 l/m 0 min 0 min 0 W/m 0,0 km/h (0 Bft) 95,74 %
27.12.2018 22:00 2,1 C 1,7 C 0,6 C 92 % 1024,0 hPa 0,0 l/m 0 min 0 min 0 W/m 0,0 km/h (0 Bft) 97,87 %
27.12.2018 22:02 2,1 C 1,7 C 0,6 C 92 % 1024,0 hPa 0,0 l/m 0 min 0 min 0 W/m 0,0 km/h (0 Bft) 87,23 %
27.12.2018 22:04 2,1 C 1,7 C 0,6 C 92 % 1024,0 hPa 0,0 l/m 0 min 0 min 0 W/m 0,0 km/h (0 Bft) 89,36 %
27.12.2018 22:06 2,1 C 1,1 C 0,6 C 92 % 1024,1 hPa 0,0 l/m 0 min 0 min 0 W/m 0,0 km/h (0 Bft) 100,00 %
27.12.2018 22:08 2,1 C 1,1 C 0,6 C 92 % 1024,2 hPa 0,0 l/m 0 min 0 min 0 W/m 0,0 km/h (0 Bft) 100,00 %
27.12.2018 22:10 2,1 C 1,1 C 0,6 C 92 % 1024,2 hPa 0,0 l/m 0 min 0 min 0 W/m 0,0 km/h (0 Bft) 97,87 %
27.12.2018 22:12 2,1 C 1,1 C 0,6 C 92 % 1024,2 hPa 0,0 l/m 0 min 0 min 0 W/m 0,0 km/h (0 Bft) 97,87 %
27.12.2018 22:14 2,1 C 1,1 C 0,6 C 92 % 1024,3 hPa 0,0 l/m 0 min 0 min 0 W/m 0,0 km/h (0 Bft) 97,87 %
27.12.2018 22:16 2,1 C 1,1 C 0,6 C 92 % 1024,1 hPa 0,0 l/m 0 min 0 min 0 W/m 0,0 km/h (0 Bft) 95,65 %
27.12.2018 22:18 2,1 C 1,7 C 0,6 C 92 % 1024,0 hPa 0,0 l/m 0 min 0 min 0 W/m 0,0 km/h (0 Bft) 100,00 %
27.12.2018 22:20 2,1 C 1,7 C 0,6 C 92 % 1024,0 hPa 0,0 l/m 0 min 0 min 0 W/m 0,0 km/h (0 Bft) 95,74 %
27.12.2018 22:22 2,1 C 1,7 C 0,6 C 92 % 1024,0 hPa 0,0 l/m 0 min 0 min 0 W/m 0,0 km/h (0 Bft) 91,49 %
27.12.2018 22:24 2,1 C 1,7 C 0,6 C 92 % 1024,1 hPa 0,0 l/m 0 min 0 min 0 W/m 0,0 km/h (0 Bft) 97,87 %
27.12.2018 22:26 2,1 C 1,7 C 0,6 C 92 % 1024,1 hPa 0,0 l/m 0 min 0 min 0 W/m 0,0 km/h (0 Bft) 95,74 %
27.12.2018 22:28 2,1 C 1,1 C 0,6 C 92 % 1024,1 hPa 0,0 l/m 0 min 0 min 0 W/m 0,0 km/h (0 Bft) 91,30 %
27.12.2018 22:30 2,1 C 1,1 C 0,6 C 92 % 1024,1 hPa 0,0 l/m 0 min 0 min 0 W/m 0,0 km/h (0 Bft) 100,00 %
27.12.2018 22:32 2,1 C 1,1 C 0,6 C 92 % 1024,0 hPa 0,0 l/m 0 min 0 min 0 W/m 0,0 km/h (0 Bft) 93,62 %
27.12.2018 22:34 2,1 C 1,1 C 0,6 C 92 % 1024,0 hPa 0,0 l/m 0 min 0 min 0 W/m 0,0 km/h (0 Bft) 93,62 %
27.12.2018 22:36 2,1 C 1,1 C 0,6 C 92 % 1024,1 hPa 0,0 l/m 0 min 0 min 0 W/m 0,0 km/h (0 Bft) 82,98 %
27.12.2018 22:38 2,1 C 1,1 C 0,6 C 92 % 1024,1 hPa 0,0 l/m 0 min 0 min 0 W/m 0,0 km/h (0 Bft) 100,00 %
27.12.2018 22:40 2,0 C 1,1 C 0,6 C 92 % 1024,1 hPa 0,0 l/m 0 min 0 min 0 W/m 0,0 km/h (0 Bft) 100,00 %
27.12.2018 22:42 2,0 C 1,1 C 0,6 C 92 % 1024,1 hPa 0,0 l/m 0 min 0 min 0 W/m 0,0 km/h (0 Bft) 100,00 %
27.12.2018 22:44 2,0 C 1,1 C 0,6 C 92 % 1024,1 hPa 0,0 l/m 0 min 0 min 0 W/m 0,0 km/h (0 Bft) 100,00 %
27.12.2018 22:46 2,0 C 1,1 C 0,6 C 92 % 1024,1 hPa 0,0 l/m 0 min 0 min 0 W/m 0,0 km/h (0 Bft) 100,00 %
27.12.2018 22:48 2,0 C 1,1 C 0,6 C 92 % 1024,1 hPa 0,0 l/m 0 min 0 min 0 W/m 0,0 km/h (0 Bft) 97,87 %
27.12.2018 22:50 1,9 C 1,1 C 0,6 C 92 % 1024,1 hPa 0,0 l/m 0 min 0 min 0 W/m 0,0 km/h (0 Bft) 100,00 %
27.12.2018 22:52 1,9 C 1,1 C 0,6 C 92 % 1024,1 hPa 0,0 l/m 0 min 0 min 0 W/m 0,0 km/h (0 Bft) 100,00 %
27.12.2018 22:54 1,9 C 1,1 C 0,6 C 92 % 1024,0 hPa 0,0 l/m 0 min 0 min 0 W/m 0,0 km/h (0 Bft) 95,74 %
27.12.2018 22:56 1,9 C 1,1 C 0,6 C 92 % 1024,1 hPa 0,0 l/m 0 min 0 min 0 W/m 0,0 km/h (0 Bft) 97,83 %
27.12.2018 22:58 1,9 C 1,1 C 0,6 C 92 % 1024,0 hPa 0,0 l/m 0 min 0 min 0 W/m 0,0 km/h (0 Bft) 95,74 %
27.12.2018 23:00 1,9 C 1,1 C 0,6 C 91 % 1024,1 hPa 0,0 l/m 0 min 0 min 0 W/m 0,0 km/h (0 Bft) 95,74 %
27.12.2018 23:02 1,9 C 1,1 C 0,6 C 91 % 1024,1 hPa 0,0 l/m 0 min 0 min 0 W/m 3,2 km/h (1 Bft) 93,62 %
27.12.2018 23:04 1,9 C 1,7 C 0,6 C 91 % 1024,0 hPa 0,0 l/m 0 min 0 min 0 W/m 0,0 km/h (0 Bft) 97,87 %
27.12.2018 23:06 1,9 C 1,7 C 1,1 C 91 % 1024,0 hPa 0,0 l/m 0 min 0 min 0 W/m 0,0 km/h (0 Bft) 98,28 %
27.12.2018 23:08 1,9 C 1,7 C 1,1 C 91 % 1023,9 hPa 0,0 l/m 0 min 0 min 0 W/m 0,0 km/h (0 Bft) 97,87 %
27.12.2018 23:10 1,9 C 1,7 C 1,1 C 92 % 1024,0 hPa 0,0 l/m 0 min 0 min 0 W/m 0,0 km/h (0 Bft) 94,29 %
27.12.2018 23:12 1,9 C 1,7 C 1,1 C 92 % 1024,0 hPa 0,0 l/m 0 min 0 min 0 W/m 0,0 km/h (0 Bft) 95,74 %
27.12.2018 23:14 1,9 C 1,7 C 0,6 C 92 % 1024,0 hPa 0,0 l/m 0 min 0 min 0 W/m 0,0 km/h (0 Bft) 97,87 %
27.12.2018 23:16 1,9 C 1,7 C 0,6 C 92 % 1024,1 hPa 0,0 l/m 0 min 0 min 0 W/m 0,0 km/h (0 Bft) 97,87 %
27.12.2018 23:18 1,9 C 1,7 C 0,6 C 92 % 1024,1 hPa 0,0 l/m 0 min 0 min 0 W/m 0,0 km/h (0 Bft) 95,65 %
27.12.2018 23:20 1,9 C 1,7 C 0,6 C 92 % 1024,1 hPa 0,0 l/m 0 min 0 min 0 W/m 0,0 km/h (0 Bft) 97,87 %
27.12.2018 23:22 1,9 C 1,1 C 0,6 C 92 % 1024,1 hPa 0,0 l/m 0 min 0 min 0 W/m 0,0 km/h (0 Bft) 95,74 %
27.12.2018 23:24 1,9 C 1,1 C 0,6 C 92 % 1024,1 hPa 0,0 l/m 0 min 0 min 0 W/m 0,0 km/h (0 Bft) 95,74 %
27.12.2018 23:26 1,9 C 1,1 C 0,6 C 92 % 1024,1 hPa 0,0 l/m 0 min 0 min 0 W/m 0,0 km/h (0 Bft) 93,62 %
27.12.2018 23:28 1,9 C 1,1 C 0,6 C 92 % 1024,2 hPa 0,0 l/m 0 min 0 min 0 W/m 0,0 km/h (0 Bft) 91,49 %
27.12.2018 23:30 1,9 C 1,1 C 0,6 C 92 % 1024,2 hPa 0,0 l/m 0 min 0 min 0 W/m 0,0 km/h (0 Bft) 91,30 %
27.12.2018 23:32 1,9 C 1,1 C 0,6 C 92 % 1024,2 hPa 0,0 l/m 0 min 0 min 0 W/m 0,0 km/h (0 Bft) 93,62 %
27.12.2018 23:34 1,9 C 1,1 C 0,6 C 92 % 1024,2 hPa 0,0 l/m 0 min 0 min 0 W/m 0,0 km/h (0 Bft) 93,62 %
27.12.2018 23:36 1,9 C 1,1 C 0,6 C 92 % 1024,3 hPa 0,0 l/m 0 min 0 min 0 W/m 0,0 km/h (0 Bft) 91,53 %
27.12.2018 23:38 1,9 C 1,1 C 0,6 C 92 % 1024,3 hPa 0,0 l/m 0 min 0 min 0 W/m 0,0 km/h (0 Bft) 93,48 %
27.12.2018 23:40 1,8 C 1,1 C 0,6 C 92 % 1024,3 hPa 0,0 l/m 0 min 0 min 0 W/m 0,0 km/h (0 Bft) 94,44 %
27.12.2018 23:42 1,8 C 1,1 C 0,6 C 92 % 1024,4 hPa 0,0 l/m 0 min 0 min 0 W/m 0,0 km/h (0 Bft) 91,30 %
27.12.2018 23:44 1,8 C 0,6 C 0,6 C 92 % 1024,4 hPa 0,0 l/m 0 min 0 min 0 W/m 0,0 km/h (0 Bft) 91,49 %
27.12.2018 23:46 1,8 C 0,6 C 0,0 C 92 % 1024,4 hPa 0,0 l/m 0 min 0 min 0 W/m 0,0 km/h (0 Bft) 91,49 %
27.12.2018 23:48 1,8 C 0,6 C 0,0 C 92 % 1024,4 hPa 0,0 l/m 0 min 0 min 0 W/m 0,0 km/h (0 Bft) 93,62 %
27.12.2018 23:50 1,8 C 0,6 C 0,0 C 92 % 1024,4 hPa 0,0 l/m 0 min 0 min 0 W/m 0,0 km/h (0 Bft) 93,62 %
27.12.2018 23:52 1,8 C 0,6 C 0,0 C 92 % 1024,4 hPa 0,0 l/m 0 min 0 min 0 W/m 0,0 km/h (0 Bft) 91,49 %
27.12.2018 23:54 1,8 C 0,6 C 0,0 C 92 % 1024,3 hPa 0,0 l/m 0 min 0 min 0 W/m 0,0 km/h (0 Bft) 93,48 %
27.12.2018 23:56 1,7 C 0,6 C 0,0 C 92 % 1024,3 hPa 0,0 l/m 0 min 0 min 0 W/m 0,0 km/h (0 Bft) 95,74 %
27.12.2018 23:58 1,7 C 0,6 C 0,0 C 92 % 1024,3 hPa 0,0 l/m 0 min 0 min 0 W/m 0,0 km/h (0 Bft) 95,74 %
_ Min-Zeit 08:28 04:20 04:16 13:24 18:36 - - - - 00:00 21:12
Minimum _ -0,2 C -1,1 C -1,7 C 81 % 1023,6 hPa - - - - 0,0 km/h (0 Bft) 70,21 %
_ Max-Zeit 14:40 13:12 13:06 05:02 00:02 00:00 12:08 00:00 13:08 06:52 00:08
Maximum _ 4,4 C 7,8 C 3,9 C 93 % 1027,9 hPa 0,0 l/m 4 min 0 min 258 W/m 16,1 km/h
SO (3 Bft)
100,00 %
Durchschnitt _ 1,7 C 1,5 C 0,5 C 89 % 1025,1 hPa #0,0 l/m #2:28 h #0 min. 91 W/m 3,0 km/h (1 Bft) 96,76 %
© 2018 W. Hausmann